<?xml version="1.0" encoding="UTF-8" standalone="no" ?>
<gpx xmlns="http://www.topografix.com/GPX/1/1" xmlns:xsi="http://www.w3.org/2001/XMLSchema-instance" xsi:schemaLocation="http://www.topografix.com/GPX/1/1 http://www.topografix.com/GPX/1/1/gpx.xsd" version="1.1" creator="VisuGPX - https://www.visugpx.com">
  <metadata>
    <name>VTT le 26 mai 2019</name>
    <desc><![CDATA[VTT le 26 mai 2019]]></desc>
  </metadata>
  <trk>
    <name><![CDATA[Tracé 027]]></name>
    <trkseg>
      <trkpt lat="43.44849" lon="5.86265">
        <ele>315.45</ele>
        <time>2019-05-26T08:15:08Z</time>
      </trkpt>
      <trkpt lat="43.44851" lon="5.8627">
        <ele>314.97</ele>
        <time>2019-05-26T08:15:09Z</time>
      </trkpt>
      <trkpt lat="43.44852" lon="5.86276">
        <ele>314.49</ele>
        <time>2019-05-26T08:15:10Z</time>
      </trkpt>
      <trkpt lat="43.44854" lon="5.86282">
        <ele>314.49</ele>
        <time>2019-05-26T08:15:11Z</time>
      </trkpt>
      <trkpt lat="43.44858" lon="5.86289">
        <ele>314.49</ele>
        <time>2019-05-26T08:15:12Z</time>
      </trkpt>
      <trkpt lat="43.44862" lon="5.86295">
        <ele>314.49</ele>
        <time>2019-05-26T08:15:13Z</time>
      </trkpt>
      <trkpt lat="43.44864" lon="5.86299">
        <ele>314.49</ele>
        <time>2019-05-26T08:15:14Z</time>
      </trkpt>
      <trkpt lat="43.44877" lon="5.86315">
        <ele>314.49</ele>
        <time>2019-05-26T08:15:17Z</time>
      </trkpt>
      <trkpt lat="43.44881" lon="5.86319">
        <ele>314.49</ele>
        <time>2019-05-26T08:15:18Z</time>
      </trkpt>
      <trkpt lat="43.44963" lon="5.86376">
        <ele>312.57</ele>
        <time>2019-05-26T08:15:34Z</time>
      </trkpt>
      <trkpt lat="43.44982" lon="5.86391">
        <ele>312.09</ele>
        <time>2019-05-26T08:15:38Z</time>
      </trkpt>
      <trkpt lat="43.44986" lon="5.86397">
        <ele>312.09</ele>
        <time>2019-05-26T08:15:39Z</time>
      </trkpt>
      <trkpt lat="43.44989" lon="5.86403">
        <ele>312.09</ele>
        <time>2019-05-26T08:15:40Z</time>
      </trkpt>
      <trkpt lat="43.44991" lon="5.8641">
        <ele>311.6</ele>
        <time>2019-05-26T08:15:41Z</time>
      </trkpt>
      <trkpt lat="43.44993" lon="5.86416">
        <ele>311.6</ele>
        <time>2019-05-26T08:15:42Z</time>
      </trkpt>
      <trkpt lat="43.44996" lon="5.86422">
        <ele>311.6</ele>
        <time>2019-05-26T08:15:43Z</time>
      </trkpt>
      <trkpt lat="43.44999" lon="5.86428">
        <ele>311.12</ele>
        <time>2019-05-26T08:15:44Z</time>
      </trkpt>
      <trkpt lat="43.45003" lon="5.86435">
        <ele>311.12</ele>
        <time>2019-05-26T08:15:45Z</time>
      </trkpt>
      <trkpt lat="43.45066" lon="5.86524">
        <ele>309.68</ele>
        <time>2019-05-26T08:15:59Z</time>
      </trkpt>
      <trkpt lat="43.45082" lon="5.86539">
        <ele>309.2</ele>
        <time>2019-05-26T08:16:02Z</time>
      </trkpt>
      <trkpt lat="43.45116" lon="5.86568">
        <ele>307.76</ele>
        <time>2019-05-26T08:16:08Z</time>
      </trkpt>
      <trkpt lat="43.45121" lon="5.86576">
        <ele>307.76</ele>
        <time>2019-05-26T08:16:09Z</time>
      </trkpt>
      <trkpt lat="43.45124" lon="5.86584">
        <ele>307.76</ele>
        <time>2019-05-26T08:16:10Z</time>
      </trkpt>
      <trkpt lat="43.45126" lon="5.86593">
        <ele>307.76</ele>
        <time>2019-05-26T08:16:11Z</time>
      </trkpt>
      <trkpt lat="43.45129" lon="5.86602">
        <ele>307.28</ele>
        <time>2019-05-26T08:16:12Z</time>
      </trkpt>
      <trkpt lat="43.45131" lon="5.86611">
        <ele>307.28</ele>
        <time>2019-05-26T08:16:13Z</time>
      </trkpt>
      <trkpt lat="43.45132" lon="5.86621">
        <ele>306.8</ele>
        <time>2019-05-26T08:16:14Z</time>
      </trkpt>
      <trkpt lat="43.45132" lon="5.86628">
        <ele>306.32</ele>
        <time>2019-05-26T08:16:15Z</time>
      </trkpt>
      <trkpt lat="43.45131" lon="5.86637">
        <ele>306.8</ele>
        <time>2019-05-26T08:16:16Z</time>
      </trkpt>
      <trkpt lat="43.45129" lon="5.86644">
        <ele>306.8</ele>
        <time>2019-05-26T08:16:17Z</time>
      </trkpt>
      <trkpt lat="43.45126" lon="5.86651">
        <ele>306.8</ele>
        <time>2019-05-26T08:16:18Z</time>
      </trkpt>
      <trkpt lat="43.45123" lon="5.86657">
        <ele>306.8</ele>
        <time>2019-05-26T08:16:19Z</time>
      </trkpt>
      <trkpt lat="43.4512" lon="5.86663">
        <ele>306.8</ele>
        <time>2019-05-26T08:16:20Z</time>
      </trkpt>
      <trkpt lat="43.45116" lon="5.86668">
        <ele>306.8</ele>
        <time>2019-05-26T08:16:21Z</time>
      </trkpt>
      <trkpt lat="43.45108" lon="5.86678">
        <ele>306.8</ele>
        <time>2019-05-26T08:16:23Z</time>
      </trkpt>
      <trkpt lat="43.4505" lon="5.86766">
        <ele>307.76</ele>
        <time>2019-05-26T08:16:38Z</time>
      </trkpt>
      <trkpt lat="43.45046" lon="5.86771">
        <ele>307.76</ele>
        <time>2019-05-26T08:16:39Z</time>
      </trkpt>
      <trkpt lat="43.44995" lon="5.86828">
        <ele>309.2</ele>
        <time>2019-05-26T08:16:55Z</time>
      </trkpt>
      <trkpt lat="43.44979" lon="5.86873">
        <ele>309.68</ele>
        <time>2019-05-26T08:17:06Z</time>
      </trkpt>
      <trkpt lat="43.44976" lon="5.86891">
        <ele>309.68</ele>
        <time>2019-05-26T08:17:09Z</time>
      </trkpt>
      <trkpt lat="43.44974" lon="5.86899">
        <ele>309.68</ele>
        <time>2019-05-26T08:17:10Z</time>
      </trkpt>
      <trkpt lat="43.44971" lon="5.86918">
        <ele>308.24</ele>
        <time>2019-05-26T08:17:13Z</time>
      </trkpt>
      <trkpt lat="43.4497" lon="5.86926">
        <ele>308.24</ele>
        <time>2019-05-26T08:17:14Z</time>
      </trkpt>
      <trkpt lat="43.44972" lon="5.86955">
        <ele>307.76</ele>
        <time>2019-05-26T08:17:18Z</time>
      </trkpt>
      <trkpt lat="43.44983" lon="5.87023">
        <ele>305.84</ele>
        <time>2019-05-26T08:17:27Z</time>
      </trkpt>
      <trkpt lat="43.44981" lon="5.8703">
        <ele>305.36</ele>
        <time>2019-05-26T08:17:28Z</time>
      </trkpt>
      <trkpt lat="43.44977" lon="5.87036">
        <ele>305.36</ele>
        <time>2019-05-26T08:17:29Z</time>
      </trkpt>
      <trkpt lat="43.44972" lon="5.87042">
        <ele>304.88</ele>
        <time>2019-05-26T08:17:30Z</time>
      </trkpt>
      <trkpt lat="43.44967" lon="5.87047">
        <ele>304.39</ele>
        <time>2019-05-26T08:17:31Z</time>
      </trkpt>
      <trkpt lat="43.44919" lon="5.87085">
        <ele>303.43</ele>
        <time>2019-05-26T08:17:40Z</time>
      </trkpt>
      <trkpt lat="43.44916" lon="5.8709">
        <ele>303.43</ele>
        <time>2019-05-26T08:17:41Z</time>
      </trkpt>
      <trkpt lat="43.44913" lon="5.87096">
        <ele>303.43</ele>
        <time>2019-05-26T08:17:42Z</time>
      </trkpt>
      <trkpt lat="43.44911" lon="5.87101">
        <ele>303.43</ele>
        <time>2019-05-26T08:17:43Z</time>
      </trkpt>
      <trkpt lat="43.4491" lon="5.87107">
        <ele>303.43</ele>
        <time>2019-05-26T08:17:44Z</time>
      </trkpt>
      <trkpt lat="43.44909" lon="5.87113">
        <ele>303.43</ele>
        <time>2019-05-26T08:17:45Z</time>
      </trkpt>
      <trkpt lat="43.44909" lon="5.8712">
        <ele>303.43</ele>
        <time>2019-05-26T08:17:46Z</time>
      </trkpt>
      <trkpt lat="43.44905" lon="5.87198">
        <ele>302.47</ele>
        <time>2019-05-26T08:17:56Z</time>
      </trkpt>
      <trkpt lat="43.44904" lon="5.87205">
        <ele>302.47</ele>
        <time>2019-05-26T08:17:57Z</time>
      </trkpt>
      <trkpt lat="43.44901" lon="5.87223">
        <ele>302.47</ele>
        <time>2019-05-26T08:18:00Z</time>
      </trkpt>
      <trkpt lat="43.44877" lon="5.87289">
        <ele>302.47</ele>
        <time>2019-05-26T08:18:12Z</time>
      </trkpt>
      <trkpt lat="43.44861" lon="5.87313">
        <ele>302.47</ele>
        <time>2019-05-26T08:18:16Z</time>
      </trkpt>
      <trkpt lat="43.44856" lon="5.87317">
        <ele>302.47</ele>
        <time>2019-05-26T08:18:17Z</time>
      </trkpt>
      <trkpt lat="43.44851" lon="5.87321">
        <ele>301.99</ele>
        <time>2019-05-26T08:18:18Z</time>
      </trkpt>
      <trkpt lat="43.44846" lon="5.87323">
        <ele>301.99</ele>
        <time>2019-05-26T08:18:19Z</time>
      </trkpt>
      <trkpt lat="43.44839" lon="5.87326">
        <ele>301.51</ele>
        <time>2019-05-26T08:18:20Z</time>
      </trkpt>
      <trkpt lat="43.44833" lon="5.87329">
        <ele>301.51</ele>
        <time>2019-05-26T08:18:21Z</time>
      </trkpt>
      <trkpt lat="43.44826" lon="5.87334">
        <ele>301.51</ele>
        <time>2019-05-26T08:18:22Z</time>
      </trkpt>
      <trkpt lat="43.4482" lon="5.87341">
        <ele>300.55</ele>
        <time>2019-05-26T08:18:23Z</time>
      </trkpt>
      <trkpt lat="43.44816" lon="5.87349">
        <ele>300.07</ele>
        <time>2019-05-26T08:18:24Z</time>
      </trkpt>
      <trkpt lat="43.44811" lon="5.87357">
        <ele>299.59</ele>
        <time>2019-05-26T08:18:25Z</time>
      </trkpt>
      <trkpt lat="43.44759" lon="5.87477">
        <ele>297.67</ele>
        <time>2019-05-26T08:18:41Z</time>
      </trkpt>
      <trkpt lat="43.44727" lon="5.87595">
        <ele>297.67</ele>
        <time>2019-05-26T08:18:57Z</time>
      </trkpt>
      <trkpt lat="43.44697" lon="5.87702">
        <ele>297.67</ele>
        <time>2019-05-26T08:19:13Z</time>
      </trkpt>
      <trkpt lat="43.44662" lon="5.87811">
        <ele>299.11</ele>
        <time>2019-05-26T08:19:32Z</time>
      </trkpt>
      <trkpt lat="43.44643" lon="5.87879">
        <ele>300.55</ele>
        <time>2019-05-26T08:19:46Z</time>
      </trkpt>
      <trkpt lat="43.44625" lon="5.87947">
        <ele>301.51</ele>
        <time>2019-05-26T08:20:01Z</time>
      </trkpt>
      <trkpt lat="43.44612" lon="5.88008">
        <ele>302.95</ele>
        <time>2019-05-26T08:20:14Z</time>
      </trkpt>
      <trkpt lat="43.44611" lon="5.88012">
        <ele>302.95</ele>
        <time>2019-05-26T08:20:15Z</time>
      </trkpt>
      <trkpt lat="43.44609" lon="5.88046">
        <ele>301.51</ele>
        <time>2019-05-26T08:20:20Z</time>
      </trkpt>
      <trkpt lat="43.44608" lon="5.8806">
        <ele>301.51</ele>
        <time>2019-05-26T08:20:22Z</time>
      </trkpt>
      <trkpt lat="43.44607" lon="5.88067">
        <ele>301.51</ele>
        <time>2019-05-26T08:20:23Z</time>
      </trkpt>
      <trkpt lat="43.44592" lon="5.88143">
        <ele>301.03</ele>
        <time>2019-05-26T08:20:37Z</time>
      </trkpt>
      <trkpt lat="43.44588" lon="5.88168">
        <ele>301.51</ele>
        <time>2019-05-26T08:20:41Z</time>
      </trkpt>
      <trkpt lat="43.44587" lon="5.88174">
        <ele>301.51</ele>
        <time>2019-05-26T08:20:42Z</time>
      </trkpt>
      <trkpt lat="43.44586" lon="5.88181">
        <ele>301.51</ele>
        <time>2019-05-26T08:20:43Z</time>
      </trkpt>
      <trkpt lat="43.44579" lon="5.88269">
        <ele>301.51</ele>
        <time>2019-05-26T08:20:57Z</time>
      </trkpt>
      <trkpt lat="43.4458" lon="5.88275">
        <ele>301.51</ele>
        <time>2019-05-26T08:20:58Z</time>
      </trkpt>
      <trkpt lat="43.44582" lon="5.88281">
        <ele>301.51</ele>
        <time>2019-05-26T08:20:59Z</time>
      </trkpt>
      <trkpt lat="43.44585" lon="5.88286">
        <ele>301.51</ele>
        <time>2019-05-26T08:21:00Z</time>
      </trkpt>
      <trkpt lat="43.44587" lon="5.88291">
        <ele>301.51</ele>
        <time>2019-05-26T08:21:01Z</time>
      </trkpt>
      <trkpt lat="43.44588" lon="5.88296">
        <ele>301.51</ele>
        <time>2019-05-26T08:21:02Z</time>
      </trkpt>
      <trkpt lat="43.44589" lon="5.88302">
        <ele>301.51</ele>
        <time>2019-05-26T08:21:03Z</time>
      </trkpt>
      <trkpt lat="43.44588" lon="5.88308">
        <ele>301.51</ele>
        <time>2019-05-26T08:21:04Z</time>
      </trkpt>
      <trkpt lat="43.44588" lon="5.88314">
        <ele>301.51</ele>
        <time>2019-05-26T08:21:05Z</time>
      </trkpt>
      <trkpt lat="43.44587" lon="5.8832">
        <ele>301.51</ele>
        <time>2019-05-26T08:21:06Z</time>
      </trkpt>
      <trkpt lat="43.44582" lon="5.88426">
        <ele>301.99</ele>
        <time>2019-05-26T08:21:24Z</time>
      </trkpt>
      <trkpt lat="43.44576" lon="5.88482">
        <ele>302.95</ele>
        <time>2019-05-26T08:21:37Z</time>
      </trkpt>
      <trkpt lat="43.44567" lon="5.88539">
        <ele>305.36</ele>
        <time>2019-05-26T08:21:52Z</time>
      </trkpt>
      <trkpt lat="43.44569" lon="5.8857">
        <ele>308.24</ele>
        <time>2019-05-26T08:22:00Z</time>
      </trkpt>
      <trkpt lat="43.44586" lon="5.88595">
        <ele>311.12</ele>
        <time>2019-05-26T08:22:12Z</time>
      </trkpt>
      <trkpt lat="43.44603" lon="5.88612">
        <ele>312.57</ele>
        <time>2019-05-26T08:22:20Z</time>
      </trkpt>
      <trkpt lat="43.44603" lon="5.88616">
        <ele>313.53</ele>
        <time>2019-05-26T08:22:21Z</time>
      </trkpt>
      <trkpt lat="43.44601" lon="5.88629">
        <ele>314.01</ele>
        <time>2019-05-26T08:22:24Z</time>
      </trkpt>
      <trkpt lat="43.44576" lon="5.88661">
        <ele>315.93</ele>
        <time>2019-05-26T08:22:37Z</time>
      </trkpt>
      <trkpt lat="43.44568" lon="5.88663">
        <ele>316.41</ele>
        <time>2019-05-26T08:22:42Z</time>
      </trkpt>
      <trkpt lat="43.44567" lon="5.88664">
        <ele>316.41</ele>
        <time>2019-05-26T08:22:43Z</time>
      </trkpt>
      <trkpt lat="43.44566" lon="5.88666">
        <ele>316.41</ele>
        <time>2019-05-26T08:22:44Z</time>
      </trkpt>
      <trkpt lat="43.44564" lon="5.88668">
        <ele>316.41</ele>
        <time>2019-05-26T08:22:45Z</time>
      </trkpt>
      <trkpt lat="43.44563" lon="5.8867">
        <ele>316.41</ele>
        <time>2019-05-26T08:22:46Z</time>
      </trkpt>
      <trkpt lat="43.44561" lon="5.88673">
        <ele>316.41</ele>
        <time>2019-05-26T08:22:47Z</time>
      </trkpt>
      <trkpt lat="43.44532" lon="5.88702">
        <ele>313.05</ele>
        <time>2019-05-26T08:22:59Z</time>
      </trkpt>
      <trkpt lat="43.44505" lon="5.88717">
        <ele>310.16</ele>
        <time>2019-05-26T08:23:06Z</time>
      </trkpt>
      <trkpt lat="43.44464" lon="5.8874">
        <ele>308.24</ele>
        <time>2019-05-26T08:23:15Z</time>
      </trkpt>
      <trkpt lat="43.44459" lon="5.88744">
        <ele>308.24</ele>
        <time>2019-05-26T08:23:16Z</time>
      </trkpt>
      <trkpt lat="43.44454" lon="5.88748">
        <ele>308.24</ele>
        <time>2019-05-26T08:23:17Z</time>
      </trkpt>
      <trkpt lat="43.44449" lon="5.88753">
        <ele>307.76</ele>
        <time>2019-05-26T08:23:18Z</time>
      </trkpt>
      <trkpt lat="43.44444" lon="5.88757">
        <ele>307.76</ele>
        <time>2019-05-26T08:23:19Z</time>
      </trkpt>
      <trkpt lat="43.44439" lon="5.88763">
        <ele>307.76</ele>
        <time>2019-05-26T08:23:20Z</time>
      </trkpt>
      <trkpt lat="43.44388" lon="5.88829">
        <ele>306.32</ele>
        <time>2019-05-26T08:23:31Z</time>
      </trkpt>
      <trkpt lat="43.44367" lon="5.88947">
        <ele>304.88</ele>
        <time>2019-05-26T08:23:49Z</time>
      </trkpt>
      <trkpt lat="43.44349" lon="5.89051">
        <ele>303.91</ele>
        <time>2019-05-26T08:24:05Z</time>
      </trkpt>
      <trkpt lat="43.44321" lon="5.89164">
        <ele>304.39</ele>
        <time>2019-05-26T08:24:24Z</time>
      </trkpt>
      <trkpt lat="43.44307" lon="5.89236">
        <ele>303.43</ele>
        <time>2019-05-26T08:24:39Z</time>
      </trkpt>
      <trkpt lat="43.44302" lon="5.89257">
        <ele>302.95</ele>
        <time>2019-05-26T08:24:43Z</time>
      </trkpt>
      <trkpt lat="43.443" lon="5.89262">
        <ele>302.95</ele>
        <time>2019-05-26T08:24:44Z</time>
      </trkpt>
      <trkpt lat="43.44297" lon="5.89267">
        <ele>302.95</ele>
        <time>2019-05-26T08:24:45Z</time>
      </trkpt>
      <trkpt lat="43.44284" lon="5.89294">
        <ele>302.47</ele>
        <time>2019-05-26T08:24:50Z</time>
      </trkpt>
      <trkpt lat="43.44282" lon="5.89299">
        <ele>301.99</ele>
        <time>2019-05-26T08:24:51Z</time>
      </trkpt>
      <trkpt lat="43.44267" lon="5.89344">
        <ele>301.03</ele>
        <time>2019-05-26T08:24:58Z</time>
      </trkpt>
      <trkpt lat="43.44265" lon="5.8935">
        <ele>301.03</ele>
        <time>2019-05-26T08:24:59Z</time>
      </trkpt>
      <trkpt lat="43.44253" lon="5.89379">
        <ele>301.03</ele>
        <time>2019-05-26T08:25:04Z</time>
      </trkpt>
      <trkpt lat="43.44242" lon="5.89399">
        <ele>300.55</ele>
        <time>2019-05-26T08:25:08Z</time>
      </trkpt>
      <trkpt lat="43.44238" lon="5.89403">
        <ele>300.55</ele>
        <time>2019-05-26T08:25:09Z</time>
      </trkpt>
      <trkpt lat="43.44235" lon="5.89407">
        <ele>300.55</ele>
        <time>2019-05-26T08:25:10Z</time>
      </trkpt>
      <trkpt lat="43.44231" lon="5.8941">
        <ele>300.07</ele>
        <time>2019-05-26T08:25:11Z</time>
      </trkpt>
      <trkpt lat="43.44227" lon="5.89413">
        <ele>300.07</ele>
        <time>2019-05-26T08:25:12Z</time>
      </trkpt>
      <trkpt lat="43.44222" lon="5.89415">
        <ele>300.07</ele>
        <time>2019-05-26T08:25:13Z</time>
      </trkpt>
      <trkpt lat="43.44217" lon="5.89416">
        <ele>299.59</ele>
        <time>2019-05-26T08:25:14Z</time>
      </trkpt>
      <trkpt lat="43.44211" lon="5.89416">
        <ele>299.59</ele>
        <time>2019-05-26T08:25:15Z</time>
      </trkpt>
      <trkpt lat="43.44206" lon="5.89416">
        <ele>299.59</ele>
        <time>2019-05-26T08:25:16Z</time>
      </trkpt>
      <trkpt lat="43.44162" lon="5.89411">
        <ele>296.7</ele>
        <time>2019-05-26T08:25:24Z</time>
      </trkpt>
      <trkpt lat="43.44146" lon="5.89412">
        <ele>296.22</ele>
        <time>2019-05-26T08:25:27Z</time>
      </trkpt>
      <trkpt lat="43.4414" lon="5.89415">
        <ele>296.22</ele>
        <time>2019-05-26T08:25:28Z</time>
      </trkpt>
      <trkpt lat="43.44135" lon="5.89418">
        <ele>295.74</ele>
        <time>2019-05-26T08:25:29Z</time>
      </trkpt>
      <trkpt lat="43.4413" lon="5.89423">
        <ele>295.26</ele>
        <time>2019-05-26T08:25:30Z</time>
      </trkpt>
      <trkpt lat="43.44125" lon="5.89429">
        <ele>295.26</ele>
        <time>2019-05-26T08:25:31Z</time>
      </trkpt>
      <trkpt lat="43.44121" lon="5.89435">
        <ele>295.26</ele>
        <time>2019-05-26T08:25:32Z</time>
      </trkpt>
      <trkpt lat="43.44101" lon="5.89461">
        <ele>293.82</ele>
        <time>2019-05-26T08:25:37Z</time>
      </trkpt>
      <trkpt lat="43.44097" lon="5.89465">
        <ele>293.82</ele>
        <time>2019-05-26T08:25:38Z</time>
      </trkpt>
      <trkpt lat="43.44093" lon="5.89471">
        <ele>293.82</ele>
        <time>2019-05-26T08:25:39Z</time>
      </trkpt>
      <trkpt lat="43.4409" lon="5.89478">
        <ele>293.82</ele>
        <time>2019-05-26T08:25:40Z</time>
      </trkpt>
      <trkpt lat="43.44089" lon="5.89486">
        <ele>293.34</ele>
        <time>2019-05-26T08:25:41Z</time>
      </trkpt>
      <trkpt lat="43.44088" lon="5.89494">
        <ele>293.34</ele>
        <time>2019-05-26T08:25:42Z</time>
      </trkpt>
      <trkpt lat="43.44087" lon="5.89502">
        <ele>293.34</ele>
        <time>2019-05-26T08:25:43Z</time>
      </trkpt>
      <trkpt lat="43.44088" lon="5.89509">
        <ele>293.34</ele>
        <time>2019-05-26T08:25:44Z</time>
      </trkpt>
      <trkpt lat="43.44091" lon="5.89541">
        <ele>293.34</ele>
        <time>2019-05-26T08:25:48Z</time>
      </trkpt>
      <trkpt lat="43.44093" lon="5.89548">
        <ele>293.34</ele>
        <time>2019-05-26T08:25:49Z</time>
      </trkpt>
      <trkpt lat="43.44105" lon="5.89661">
        <ele>291.9</ele>
        <time>2019-05-26T08:26:03Z</time>
      </trkpt>
      <trkpt lat="43.44104" lon="5.89684">
        <ele>291.42</ele>
        <time>2019-05-26T08:26:06Z</time>
      </trkpt>
      <trkpt lat="43.44102" lon="5.89699">
        <ele>291.42</ele>
        <time>2019-05-26T08:26:08Z</time>
      </trkpt>
      <trkpt lat="43.441" lon="5.89706">
        <ele>290.94</ele>
        <time>2019-05-26T08:26:09Z</time>
      </trkpt>
      <trkpt lat="43.44097" lon="5.89712">
        <ele>290.94</ele>
        <time>2019-05-26T08:26:10Z</time>
      </trkpt>
      <trkpt lat="43.44094" lon="5.89718">
        <ele>290.94</ele>
        <time>2019-05-26T08:26:11Z</time>
      </trkpt>
      <trkpt lat="43.44091" lon="5.89723">
        <ele>290.94</ele>
        <time>2019-05-26T08:26:12Z</time>
      </trkpt>
      <trkpt lat="43.44087" lon="5.89727">
        <ele>290.94</ele>
        <time>2019-05-26T08:26:13Z</time>
      </trkpt>
      <trkpt lat="43.44083" lon="5.89731">
        <ele>290.94</ele>
        <time>2019-05-26T08:26:14Z</time>
      </trkpt>
      <trkpt lat="43.44078" lon="5.89735">
        <ele>290.46</ele>
        <time>2019-05-26T08:26:15Z</time>
      </trkpt>
      <trkpt lat="43.44053" lon="5.89758">
        <ele>289.97</ele>
        <time>2019-05-26T08:26:20Z</time>
      </trkpt>
      <trkpt lat="43.44009" lon="5.89809">
        <ele>289.01</ele>
        <time>2019-05-26T08:26:31Z</time>
      </trkpt>
      <trkpt lat="43.43995" lon="5.89818">
        <ele>288.05</ele>
        <time>2019-05-26T08:26:41Z</time>
      </trkpt>
      <trkpt lat="43.43967" lon="5.89803">
        <ele>288.05</ele>
        <time>2019-05-26T08:26:55Z</time>
      </trkpt>
      <trkpt lat="43.43958" lon="5.89796">
        <ele>288.05</ele>
        <time>2019-05-26T08:27:01Z</time>
      </trkpt>
      <trkpt lat="43.43957" lon="5.89795">
        <ele>288.05</ele>
        <time>2019-05-26T08:27:02Z</time>
      </trkpt>
      <trkpt lat="43.43955" lon="5.89794">
        <ele>288.05</ele>
        <time>2019-05-26T08:27:03Z</time>
      </trkpt>
      <trkpt lat="43.43954" lon="5.89793">
        <ele>288.05</ele>
        <time>2019-05-26T08:27:04Z</time>
      </trkpt>
      <trkpt lat="43.43952" lon="5.89792">
        <ele>288.05</ele>
        <time>2019-05-26T08:27:05Z</time>
      </trkpt>
      <trkpt lat="43.4395" lon="5.89791">
        <ele>288.05</ele>
        <time>2019-05-26T08:27:06Z</time>
      </trkpt>
      <trkpt lat="43.43947" lon="5.89791">
        <ele>288.05</ele>
        <time>2019-05-26T08:27:07Z</time>
      </trkpt>
      <trkpt lat="43.43945" lon="5.8979">
        <ele>288.05</ele>
        <time>2019-05-26T08:27:08Z</time>
      </trkpt>
      <trkpt lat="43.43915" lon="5.89783">
        <ele>288.05</ele>
        <time>2019-05-26T08:27:21Z</time>
      </trkpt>
      <trkpt lat="43.43887" lon="5.89777">
        <ele>288.53</ele>
        <time>2019-05-26T08:27:34Z</time>
      </trkpt>
      <trkpt lat="43.43872" lon="5.89778">
        <ele>288.53</ele>
        <time>2019-05-26T08:27:44Z</time>
      </trkpt>
      <trkpt lat="43.43871" lon="5.89779">
        <ele>288.53</ele>
        <time>2019-05-26T08:27:45Z</time>
      </trkpt>
      <trkpt lat="43.43869" lon="5.8978">
        <ele>289.49</ele>
        <time>2019-05-26T08:27:46Z</time>
      </trkpt>
      <trkpt lat="43.43868" lon="5.89781">
        <ele>289.49</ele>
        <time>2019-05-26T08:27:47Z</time>
      </trkpt>
      <trkpt lat="43.43867" lon="5.89783">
        <ele>289.97</ele>
        <time>2019-05-26T08:27:48Z</time>
      </trkpt>
      <trkpt lat="43.43864" lon="5.89789">
        <ele>289.97</ele>
        <time>2019-05-26T08:27:51Z</time>
      </trkpt>
      <trkpt lat="43.43862" lon="5.8979">
        <ele>290.46</ele>
        <time>2019-05-26T08:27:52Z</time>
      </trkpt>
      <trkpt lat="43.43859" lon="5.89791">
        <ele>290.46</ele>
        <time>2019-05-26T08:27:53Z</time>
      </trkpt>
      <trkpt lat="43.43833" lon="5.89817">
        <ele>291.42</ele>
        <time>2019-05-26T08:28:09Z</time>
      </trkpt>
      <trkpt lat="43.43823" lon="5.89843">
        <ele>292.38</ele>
        <time>2019-05-26T08:28:22Z</time>
      </trkpt>
      <trkpt lat="43.43809" lon="5.89889">
        <ele>292.86</ele>
        <time>2019-05-26T08:28:35Z</time>
      </trkpt>
      <trkpt lat="43.43788" lon="5.89919">
        <ele>292.86</ele>
        <time>2019-05-26T08:28:49Z</time>
      </trkpt>
      <trkpt lat="43.43761" lon="5.89952">
        <ele>293.34</ele>
        <time>2019-05-26T08:29:04Z</time>
      </trkpt>
      <trkpt lat="43.43739" lon="5.89985">
        <ele>293.82</ele>
        <time>2019-05-26T08:29:20Z</time>
      </trkpt>
      <trkpt lat="43.43717" lon="5.90002">
        <ele>294.78</ele>
        <time>2019-05-26T08:29:35Z</time>
      </trkpt>
      <trkpt lat="43.43694" lon="5.90034">
        <ele>295.26</ele>
        <time>2019-05-26T08:29:53Z</time>
      </trkpt>
      <trkpt lat="43.43688" lon="5.90083">
        <ele>295.74</ele>
        <time>2019-05-26T08:30:10Z</time>
      </trkpt>
      <trkpt lat="43.43692" lon="5.90123">
        <ele>297.18</ele>
        <time>2019-05-26T08:30:26Z</time>
      </trkpt>
      <trkpt lat="43.43709" lon="5.90161">
        <ele>298.63</ele>
        <time>2019-05-26T08:30:42Z</time>
      </trkpt>
      <trkpt lat="43.43731" lon="5.90197">
        <ele>298.63</ele>
        <time>2019-05-26T08:30:57Z</time>
      </trkpt>
      <trkpt lat="43.43754" lon="5.9023">
        <ele>298.63</ele>
        <time>2019-05-26T08:31:13Z</time>
      </trkpt>
      <trkpt lat="43.4378" lon="5.90268">
        <ele>298.63</ele>
        <time>2019-05-26T08:31:31Z</time>
      </trkpt>
      <trkpt lat="43.4381" lon="5.90315">
        <ele>299.59</ele>
        <time>2019-05-26T08:31:51Z</time>
      </trkpt>
      <trkpt lat="43.43833" lon="5.90351">
        <ele>301.03</ele>
        <time>2019-05-26T08:32:08Z</time>
      </trkpt>
      <trkpt lat="43.43854" lon="5.90382">
        <ele>301.03</ele>
        <time>2019-05-26T08:32:25Z</time>
      </trkpt>
      <trkpt lat="43.43883" lon="5.90412">
        <ele>298.63</ele>
        <time>2019-05-26T08:32:42Z</time>
      </trkpt>
      <trkpt lat="43.43912" lon="5.90439">
        <ele>296.7</ele>
        <time>2019-05-26T08:32:58Z</time>
      </trkpt>
      <trkpt lat="43.43945" lon="5.90466">
        <ele>295.26</ele>
        <time>2019-05-26T08:33:13Z</time>
      </trkpt>
      <trkpt lat="43.43968" lon="5.90504">
        <ele>293.82</ele>
        <time>2019-05-26T08:33:27Z</time>
      </trkpt>
      <trkpt lat="43.43977" lon="5.90549">
        <ele>292.38</ele>
        <time>2019-05-26T08:33:42Z</time>
      </trkpt>
      <trkpt lat="43.43968" lon="5.90564">
        <ele>291.9</ele>
        <time>2019-05-26T08:33:50Z</time>
      </trkpt>
      <trkpt lat="43.43967" lon="5.90565">
        <ele>291.42</ele>
        <time>2019-05-26T08:33:51Z</time>
      </trkpt>
      <trkpt lat="43.43966" lon="5.90565">
        <ele>291.42</ele>
        <time>2019-05-26T08:33:52Z</time>
      </trkpt>
      <trkpt lat="43.43964" lon="5.90566">
        <ele>291.42</ele>
        <time>2019-05-26T08:33:53Z</time>
      </trkpt>
      <trkpt lat="43.43963" lon="5.90568">
        <ele>291.42</ele>
        <time>2019-05-26T08:33:54Z</time>
      </trkpt>
      <trkpt lat="43.43962" lon="5.9057">
        <ele>291.42</ele>
        <time>2019-05-26T08:33:55Z</time>
      </trkpt>
      <trkpt lat="43.43961" lon="5.90572">
        <ele>291.42</ele>
        <time>2019-05-26T08:33:56Z</time>
      </trkpt>
      <trkpt lat="43.43938" lon="5.90603">
        <ele>291.42</ele>
        <time>2019-05-26T08:34:10Z</time>
      </trkpt>
      <trkpt lat="43.43913" lon="5.90637">
        <ele>291.42</ele>
        <time>2019-05-26T08:34:25Z</time>
      </trkpt>
      <trkpt lat="43.43899" lon="5.9065">
        <ele>292.86</ele>
        <time>2019-05-26T08:34:33Z</time>
      </trkpt>
      <trkpt lat="43.43868" lon="5.90651">
        <ele>293.34</ele>
        <time>2019-05-26T08:34:49Z</time>
      </trkpt>
      <trkpt lat="43.43836" lon="5.90646">
        <ele>295.26</ele>
        <time>2019-05-26T08:35:06Z</time>
      </trkpt>
      <trkpt lat="43.43807" lon="5.90642">
        <ele>297.67</ele>
        <time>2019-05-26T08:35:21Z</time>
      </trkpt>
      <trkpt lat="43.43805" lon="5.90642">
        <ele>297.67</ele>
        <time>2019-05-26T08:35:22Z</time>
      </trkpt>
      <trkpt lat="43.43803" lon="5.90643">
        <ele>298.63</ele>
        <time>2019-05-26T08:35:23Z</time>
      </trkpt>
      <trkpt lat="43.43801" lon="5.90644">
        <ele>298.63</ele>
        <time>2019-05-26T08:35:24Z</time>
      </trkpt>
      <trkpt lat="43.43799" lon="5.90646">
        <ele>298.63</ele>
        <time>2019-05-26T08:35:25Z</time>
      </trkpt>
      <trkpt lat="43.43772" lon="5.90667">
        <ele>301.03</ele>
        <time>2019-05-26T08:35:40Z</time>
      </trkpt>
      <trkpt lat="43.43741" lon="5.90659">
        <ele>304.39</ele>
        <time>2019-05-26T08:35:55Z</time>
      </trkpt>
      <trkpt lat="43.43711" lon="5.90642">
        <ele>305.84</ele>
        <time>2019-05-26T08:36:12Z</time>
      </trkpt>
      <trkpt lat="43.4368" lon="5.90628">
        <ele>306.8</ele>
        <time>2019-05-26T08:36:28Z</time>
      </trkpt>
      <trkpt lat="43.43661" lon="5.90614">
        <ele>307.76</ele>
        <time>2019-05-26T08:36:38Z</time>
      </trkpt>
      <trkpt lat="43.43659" lon="5.90614">
        <ele>307.76</ele>
        <time>2019-05-26T08:36:40Z</time>
      </trkpt>
      <trkpt lat="43.43633" lon="5.9062">
        <ele>306.32</ele>
        <time>2019-05-26T08:36:50Z</time>
      </trkpt>
      <trkpt lat="43.43599" lon="5.90611">
        <ele>304.39</ele>
        <time>2019-05-26T08:37:01Z</time>
      </trkpt>
      <trkpt lat="43.43589" lon="5.90622">
        <ele>303.91</ele>
        <time>2019-05-26T08:37:09Z</time>
      </trkpt>
      <trkpt lat="43.43589" lon="5.90628">
        <ele>303.91</ele>
        <time>2019-05-26T08:37:11Z</time>
      </trkpt>
      <trkpt lat="43.43592" lon="5.9063">
        <ele>303.91</ele>
        <time>2019-05-26T08:37:12Z</time>
      </trkpt>
      <trkpt lat="43.43593" lon="5.9063">
        <ele>303.91</ele>
        <time>2019-05-26T08:37:13Z</time>
      </trkpt>
      <trkpt lat="43.43595" lon="5.9063">
        <ele>303.91</ele>
        <time>2019-05-26T08:37:14Z</time>
      </trkpt>
      <trkpt lat="43.43597" lon="5.90631">
        <ele>303.91</ele>
        <time>2019-05-26T08:37:15Z</time>
      </trkpt>
      <trkpt lat="43.43599" lon="5.90633">
        <ele>303.91</ele>
        <time>2019-05-26T08:37:16Z</time>
      </trkpt>
      <trkpt lat="43.436" lon="5.90635">
        <ele>303.91</ele>
        <time>2019-05-26T08:37:17Z</time>
      </trkpt>
      <trkpt lat="43.436" lon="5.90638">
        <ele>303.91</ele>
        <time>2019-05-26T08:37:18Z</time>
      </trkpt>
      <trkpt lat="43.43599" lon="5.90642">
        <ele>303.91</ele>
        <time>2019-05-26T08:37:19Z</time>
      </trkpt>
      <trkpt lat="43.43599" lon="5.90645">
        <ele>303.91</ele>
        <time>2019-05-26T08:37:20Z</time>
      </trkpt>
      <trkpt lat="43.43597" lon="5.90649">
        <ele>305.36</ele>
        <time>2019-05-26T08:37:21Z</time>
      </trkpt>
      <trkpt lat="43.43596" lon="5.90653">
        <ele>305.84</ele>
        <time>2019-05-26T08:37:22Z</time>
      </trkpt>
      <trkpt lat="43.43594" lon="5.90656">
        <ele>305.84</ele>
        <time>2019-05-26T08:37:23Z</time>
      </trkpt>
      <trkpt lat="43.43588" lon="5.90665">
        <ele>306.32</ele>
        <time>2019-05-26T08:37:27Z</time>
      </trkpt>
      <trkpt lat="43.43587" lon="5.90668">
        <ele>306.8</ele>
        <time>2019-05-26T08:37:28Z</time>
      </trkpt>
      <trkpt lat="43.4359" lon="5.90696">
        <ele>307.28</ele>
        <time>2019-05-26T08:37:40Z</time>
      </trkpt>
      <trkpt lat="43.43591" lon="5.90697">
        <ele>307.28</ele>
        <time>2019-05-26T08:37:41Z</time>
      </trkpt>
      <trkpt lat="43.43593" lon="5.90704">
        <ele>307.28</ele>
        <time>2019-05-26T08:37:56Z</time>
      </trkpt>
      <trkpt lat="43.43592" lon="5.90704">
        <ele>307.28</ele>
        <time>2019-05-26T08:37:57Z</time>
      </trkpt>
      <trkpt lat="43.43588" lon="5.90703">
        <ele>307.28</ele>
        <time>2019-05-26T08:38:04Z</time>
      </trkpt>
      <trkpt lat="43.43587" lon="5.90702">
        <ele>307.28</ele>
        <time>2019-05-26T08:38:05Z</time>
      </trkpt>
      <trkpt lat="43.43586" lon="5.907">
        <ele>307.28</ele>
        <time>2019-05-26T08:38:06Z</time>
      </trkpt>
      <trkpt lat="43.43585" lon="5.90699">
        <ele>307.28</ele>
        <time>2019-05-26T08:38:07Z</time>
      </trkpt>
      <trkpt lat="43.43584" lon="5.90698">
        <ele>307.28</ele>
        <time>2019-05-26T08:38:08Z</time>
      </trkpt>
      <trkpt lat="43.43583" lon="5.90673">
        <ele>307.28</ele>
        <time>2019-05-26T08:38:20Z</time>
      </trkpt>
      <trkpt lat="43.43582" lon="5.90671">
        <ele>307.28</ele>
        <time>2019-05-26T08:38:21Z</time>
      </trkpt>
      <trkpt lat="43.43582" lon="5.90668">
        <ele>307.28</ele>
        <time>2019-05-26T08:38:22Z</time>
      </trkpt>
      <trkpt lat="43.43583" lon="5.90666">
        <ele>307.28</ele>
        <time>2019-05-26T08:38:23Z</time>
      </trkpt>
      <trkpt lat="43.43583" lon="5.90659">
        <ele>307.28</ele>
        <time>2019-05-26T08:38:34Z</time>
      </trkpt>
      <trkpt lat="43.43582" lon="5.90656">
        <ele>307.28</ele>
        <time>2019-05-26T08:38:41Z</time>
      </trkpt>
      <trkpt lat="43.43581" lon="5.90655">
        <ele>307.28</ele>
        <time>2019-05-26T08:38:42Z</time>
      </trkpt>
      <trkpt lat="43.4358" lon="5.90652">
        <ele>307.28</ele>
        <time>2019-05-26T08:38:44Z</time>
      </trkpt>
      <trkpt lat="43.43578" lon="5.9065">
        <ele>307.28</ele>
        <time>2019-05-26T08:38:45Z</time>
      </trkpt>
      <trkpt lat="43.43577" lon="5.90648">
        <ele>307.28</ele>
        <time>2019-05-26T08:38:46Z</time>
      </trkpt>
      <trkpt lat="43.43575" lon="5.90647">
        <ele>307.28</ele>
        <time>2019-05-26T08:38:47Z</time>
      </trkpt>
      <trkpt lat="43.43573" lon="5.90645">
        <ele>307.28</ele>
        <time>2019-05-26T08:38:48Z</time>
      </trkpt>
      <trkpt lat="43.43571" lon="5.90644">
        <ele>307.28</ele>
        <time>2019-05-26T08:38:49Z</time>
      </trkpt>
      <trkpt lat="43.43548" lon="5.90639">
        <ele>307.28</ele>
        <time>2019-05-26T08:39:01Z</time>
      </trkpt>
      <trkpt lat="43.43509" lon="5.90642">
        <ele>304.88</ele>
        <time>2019-05-26T08:39:14Z</time>
      </trkpt>
      <trkpt lat="43.435" lon="5.90644">
        <ele>303.43</ele>
        <time>2019-05-26T08:39:17Z</time>
      </trkpt>
      <trkpt lat="43.43478" lon="5.90653">
        <ele>301.99</ele>
        <time>2019-05-26T08:39:24Z</time>
      </trkpt>
      <trkpt lat="43.43474" lon="5.90657">
        <ele>301.99</ele>
        <time>2019-05-26T08:39:25Z</time>
      </trkpt>
      <trkpt lat="43.43471" lon="5.90661">
        <ele>301.51</ele>
        <time>2019-05-26T08:39:26Z</time>
      </trkpt>
      <trkpt lat="43.43452" lon="5.90689">
        <ele>301.03</ele>
        <time>2019-05-26T08:39:37Z</time>
      </trkpt>
      <trkpt lat="43.43439" lon="5.90732">
        <ele>301.03</ele>
        <time>2019-05-26T08:39:49Z</time>
      </trkpt>
      <trkpt lat="43.43438" lon="5.90736">
        <ele>301.03</ele>
        <time>2019-05-26T08:39:51Z</time>
      </trkpt>
      <trkpt lat="43.43437" lon="5.90738">
        <ele>301.03</ele>
        <time>2019-05-26T08:39:52Z</time>
      </trkpt>
      <trkpt lat="43.43427" lon="5.90779">
        <ele>302.47</ele>
        <time>2019-05-26T08:40:04Z</time>
      </trkpt>
      <trkpt lat="43.43418" lon="5.90806">
        <ele>302.47</ele>
        <time>2019-05-26T08:40:11Z</time>
      </trkpt>
      <trkpt lat="43.43415" lon="5.90811">
        <ele>302.47</ele>
        <time>2019-05-26T08:40:12Z</time>
      </trkpt>
      <trkpt lat="43.43413" lon="5.90816">
        <ele>302.47</ele>
        <time>2019-05-26T08:40:13Z</time>
      </trkpt>
      <trkpt lat="43.4339" lon="5.90877">
        <ele>302.47</ele>
        <time>2019-05-26T08:40:26Z</time>
      </trkpt>
      <trkpt lat="43.43371" lon="5.90935">
        <ele>303.91</ele>
        <time>2019-05-26T08:40:42Z</time>
      </trkpt>
      <trkpt lat="43.43349" lon="5.90964">
        <ele>303.91</ele>
        <time>2019-05-26T08:40:54Z</time>
      </trkpt>
      <trkpt lat="43.43346" lon="5.90967">
        <ele>303.91</ele>
        <time>2019-05-26T08:40:55Z</time>
      </trkpt>
      <trkpt lat="43.43332" lon="5.90977">
        <ele>302.95</ele>
        <time>2019-05-26T08:40:58Z</time>
      </trkpt>
      <trkpt lat="43.43327" lon="5.90982">
        <ele>302.95</ele>
        <time>2019-05-26T08:40:59Z</time>
      </trkpt>
      <trkpt lat="43.43323" lon="5.90988">
        <ele>302.47</ele>
        <time>2019-05-26T08:41:00Z</time>
      </trkpt>
      <trkpt lat="43.43319" lon="5.90993">
        <ele>302.47</ele>
        <time>2019-05-26T08:41:01Z</time>
      </trkpt>
      <trkpt lat="43.43315" lon="5.90998">
        <ele>302.47</ele>
        <time>2019-05-26T08:41:02Z</time>
      </trkpt>
      <trkpt lat="43.43276" lon="5.91063">
        <ele>302.47</ele>
        <time>2019-05-26T08:41:16Z</time>
      </trkpt>
      <trkpt lat="43.4324" lon="5.91106">
        <ele>302.95</ele>
        <time>2019-05-26T08:41:29Z</time>
      </trkpt>
      <trkpt lat="43.43201" lon="5.91142">
        <ele>304.39</ele>
        <time>2019-05-26T08:41:43Z</time>
      </trkpt>
      <trkpt lat="43.43169" lon="5.91202">
        <ele>305.84</ele>
        <time>2019-05-26T08:41:59Z</time>
      </trkpt>
      <trkpt lat="43.43124" lon="5.91242">
        <ele>305.84</ele>
        <time>2019-05-26T08:42:15Z</time>
      </trkpt>
      <trkpt lat="43.43078" lon="5.91276">
        <ele>307.76</ele>
        <time>2019-05-26T08:42:33Z</time>
      </trkpt>
      <trkpt lat="43.43058" lon="5.91279">
        <ele>311.12</ele>
        <time>2019-05-26T08:42:44Z</time>
      </trkpt>
      <trkpt lat="43.43053" lon="5.9128">
        <ele>312.09</ele>
        <time>2019-05-26T08:42:47Z</time>
      </trkpt>
      <trkpt lat="43.43034" lon="5.91289">
        <ele>314.01</ele>
        <time>2019-05-26T08:43:00Z</time>
      </trkpt>
      <trkpt lat="43.43031" lon="5.91292">
        <ele>314.01</ele>
        <time>2019-05-26T08:43:02Z</time>
      </trkpt>
      <trkpt lat="43.43009" lon="5.91306">
        <ele>316.41</ele>
        <time>2019-05-26T08:43:15Z</time>
      </trkpt>
      <trkpt lat="43.42985" lon="5.91312">
        <ele>318.81</ele>
        <time>2019-05-26T08:43:25Z</time>
      </trkpt>
      <trkpt lat="43.42983" lon="5.91314">
        <ele>318.81</ele>
        <time>2019-05-26T08:43:26Z</time>
      </trkpt>
      <trkpt lat="43.4298" lon="5.91316">
        <ele>318.81</ele>
        <time>2019-05-26T08:43:27Z</time>
      </trkpt>
      <trkpt lat="43.42979" lon="5.91318">
        <ele>319.3</ele>
        <time>2019-05-26T08:43:28Z</time>
      </trkpt>
      <trkpt lat="43.42971" lon="5.91345">
        <ele>318.33</ele>
        <time>2019-05-26T08:43:41Z</time>
      </trkpt>
      <trkpt lat="43.42968" lon="5.91359">
        <ele>317.85</ele>
        <time>2019-05-26T08:43:44Z</time>
      </trkpt>
      <trkpt lat="43.42966" lon="5.91364">
        <ele>317.37</ele>
        <time>2019-05-26T08:43:45Z</time>
      </trkpt>
      <trkpt lat="43.42965" lon="5.91369">
        <ele>317.37</ele>
        <time>2019-05-26T08:43:46Z</time>
      </trkpt>
      <trkpt lat="43.42963" lon="5.91375">
        <ele>317.37</ele>
        <time>2019-05-26T08:43:47Z</time>
      </trkpt>
      <trkpt lat="43.4296" lon="5.91381">
        <ele>317.37</ele>
        <time>2019-05-26T08:43:48Z</time>
      </trkpt>
      <trkpt lat="43.42958" lon="5.91387">
        <ele>317.37</ele>
        <time>2019-05-26T08:43:49Z</time>
      </trkpt>
      <trkpt lat="43.42904" lon="5.91442">
        <ele>316.89</ele>
        <time>2019-05-26T08:44:05Z</time>
      </trkpt>
      <trkpt lat="43.42878" lon="5.91461">
        <ele>316.89</ele>
        <time>2019-05-26T08:44:14Z</time>
      </trkpt>
      <trkpt lat="43.42876" lon="5.91463">
        <ele>316.89</ele>
        <time>2019-05-26T08:44:15Z</time>
      </trkpt>
      <trkpt lat="43.42874" lon="5.91465">
        <ele>316.89</ele>
        <time>2019-05-26T08:44:16Z</time>
      </trkpt>
      <trkpt lat="43.42872" lon="5.91467">
        <ele>316.89</ele>
        <time>2019-05-26T08:44:17Z</time>
      </trkpt>
      <trkpt lat="43.4287" lon="5.91468">
        <ele>316.89</ele>
        <time>2019-05-26T08:44:18Z</time>
      </trkpt>
      <trkpt lat="43.42868" lon="5.91469">
        <ele>316.89</ele>
        <time>2019-05-26T08:44:19Z</time>
      </trkpt>
      <trkpt lat="43.42841" lon="5.91491">
        <ele>318.33</ele>
        <time>2019-05-26T08:44:32Z</time>
      </trkpt>
      <trkpt lat="43.4282" lon="5.91529">
        <ele>321.22</ele>
        <time>2019-05-26T08:44:45Z</time>
      </trkpt>
      <trkpt lat="43.42773" lon="5.91554">
        <ele>323.62</ele>
        <time>2019-05-26T08:44:58Z</time>
      </trkpt>
      <trkpt lat="43.42731" lon="5.91557">
        <ele>326.99</ele>
        <time>2019-05-26T08:45:11Z</time>
      </trkpt>
      <trkpt lat="43.42696" lon="5.91546">
        <ele>327.47</ele>
        <time>2019-05-26T08:45:25Z</time>
      </trkpt>
      <trkpt lat="43.42656" lon="5.91516">
        <ele>329.87</ele>
        <time>2019-05-26T08:45:37Z</time>
      </trkpt>
      <trkpt lat="43.42622" lon="5.91469">
        <ele>330.83</ele>
        <time>2019-05-26T08:45:52Z</time>
      </trkpt>
      <trkpt lat="43.42591" lon="5.91445">
        <ele>331.31</ele>
        <time>2019-05-26T08:46:06Z</time>
      </trkpt>
      <trkpt lat="43.4255" lon="5.91436">
        <ele>329.87</ele>
        <time>2019-05-26T08:46:22Z</time>
      </trkpt>
      <trkpt lat="43.425" lon="5.9144">
        <ele>327.95</ele>
        <time>2019-05-26T08:46:32Z</time>
      </trkpt>
      <trkpt lat="43.42483" lon="5.91441">
        <ele>327.95</ele>
        <time>2019-05-26T08:46:35Z</time>
      </trkpt>
      <trkpt lat="43.42477" lon="5.9144">
        <ele>327.95</ele>
        <time>2019-05-26T08:46:36Z</time>
      </trkpt>
      <trkpt lat="43.42473" lon="5.91438">
        <ele>326.99</ele>
        <time>2019-05-26T08:46:37Z</time>
      </trkpt>
      <trkpt lat="43.42469" lon="5.91438">
        <ele>327.47</ele>
        <time>2019-05-26T08:46:38Z</time>
      </trkpt>
      <trkpt lat="43.42464" lon="5.9144">
        <ele>327.47</ele>
        <time>2019-05-26T08:46:39Z</time>
      </trkpt>
      <trkpt lat="43.42461" lon="5.91438">
        <ele>327.47</ele>
        <time>2019-05-26T08:46:40Z</time>
      </trkpt>
      <trkpt lat="43.42458" lon="5.91434">
        <ele>327.47</ele>
        <time>2019-05-26T08:46:41Z</time>
      </trkpt>
      <trkpt lat="43.42456" lon="5.91431">
        <ele>327.47</ele>
        <time>2019-05-26T08:46:42Z</time>
      </trkpt>
      <trkpt lat="43.42425" lon="5.91394">
        <ele>327.47</ele>
        <time>2019-05-26T08:46:52Z</time>
      </trkpt>
      <trkpt lat="43.42422" lon="5.91394">
        <ele>328.91</ele>
        <time>2019-05-26T08:46:53Z</time>
      </trkpt>
      <trkpt lat="43.42419" lon="5.91394">
        <ele>328.91</ele>
        <time>2019-05-26T08:46:54Z</time>
      </trkpt>
      <trkpt lat="43.42417" lon="5.91396">
        <ele>329.39</ele>
        <time>2019-05-26T08:46:55Z</time>
      </trkpt>
      <trkpt lat="43.42415" lon="5.91397">
        <ele>329.39</ele>
        <time>2019-05-26T08:46:56Z</time>
      </trkpt>
      <trkpt lat="43.42412" lon="5.91398">
        <ele>329.87</ele>
        <time>2019-05-26T08:46:57Z</time>
      </trkpt>
      <trkpt lat="43.42408" lon="5.914">
        <ele>330.83</ele>
        <time>2019-05-26T08:46:59Z</time>
      </trkpt>
      <trkpt lat="43.42375" lon="5.91406">
        <ele>333.23</ele>
        <time>2019-05-26T08:47:12Z</time>
      </trkpt>
      <trkpt lat="43.4234" lon="5.91399">
        <ele>334.2</ele>
        <time>2019-05-26T08:47:26Z</time>
      </trkpt>
      <trkpt lat="43.42309" lon="5.91383">
        <ele>336.6</ele>
        <time>2019-05-26T08:47:39Z</time>
      </trkpt>
      <trkpt lat="43.42284" lon="5.91362">
        <ele>338.04</ele>
        <time>2019-05-26T08:47:52Z</time>
      </trkpt>
      <trkpt lat="43.42255" lon="5.91356">
        <ele>338.52</ele>
        <time>2019-05-26T08:48:05Z</time>
      </trkpt>
      <trkpt lat="43.42212" lon="5.91369">
        <ele>339</ele>
        <time>2019-05-26T08:48:18Z</time>
      </trkpt>
      <trkpt lat="43.42207" lon="5.91375">
        <ele>337.56</ele>
        <time>2019-05-26T08:48:20Z</time>
      </trkpt>
      <trkpt lat="43.42179" lon="5.9141">
        <ele>334.2</ele>
        <time>2019-05-26T08:48:30Z</time>
      </trkpt>
      <trkpt lat="43.42137" lon="5.91446">
        <ele>332.27</ele>
        <time>2019-05-26T08:48:39Z</time>
      </trkpt>
      <trkpt lat="43.42124" lon="5.91452">
        <ele>332.27</ele>
        <time>2019-05-26T08:48:41Z</time>
      </trkpt>
      <trkpt lat="43.42118" lon="5.91454">
        <ele>332.27</ele>
        <time>2019-05-26T08:48:42Z</time>
      </trkpt>
      <trkpt lat="43.42112" lon="5.91456">
        <ele>331.79</ele>
        <time>2019-05-26T08:48:43Z</time>
      </trkpt>
      <trkpt lat="43.42108" lon="5.91458">
        <ele>331.79</ele>
        <time>2019-05-26T08:48:44Z</time>
      </trkpt>
      <trkpt lat="43.42103" lon="5.91459">
        <ele>331.79</ele>
        <time>2019-05-26T08:48:45Z</time>
      </trkpt>
      <trkpt lat="43.42072" lon="5.91466">
        <ele>331.31</ele>
        <time>2019-05-26T08:48:51Z</time>
      </trkpt>
      <trkpt lat="43.42053" lon="5.91476">
        <ele>330.35</ele>
        <time>2019-05-26T08:48:55Z</time>
      </trkpt>
      <trkpt lat="43.42047" lon="5.91478">
        <ele>329.39</ele>
        <time>2019-05-26T08:48:56Z</time>
      </trkpt>
      <trkpt lat="43.42041" lon="5.91478">
        <ele>328.91</ele>
        <time>2019-05-26T08:48:57Z</time>
      </trkpt>
      <trkpt lat="43.42004" lon="5.91477">
        <ele>325.54</ele>
        <time>2019-05-26T08:49:03Z</time>
      </trkpt>
      <trkpt lat="43.41997" lon="5.91478">
        <ele>325.06</ele>
        <time>2019-05-26T08:49:04Z</time>
      </trkpt>
      <trkpt lat="43.41992" lon="5.91479">
        <ele>324.58</ele>
        <time>2019-05-26T08:49:05Z</time>
      </trkpt>
      <trkpt lat="43.41985" lon="5.91482">
        <ele>324.58</ele>
        <time>2019-05-26T08:49:06Z</time>
      </trkpt>
      <trkpt lat="43.41916" lon="5.91524">
        <ele>321.22</ele>
        <time>2019-05-26T08:49:17Z</time>
      </trkpt>
      <trkpt lat="43.41817" lon="5.91582">
        <ele>319.3</ele>
        <time>2019-05-26T08:49:34Z</time>
      </trkpt>
      <trkpt lat="43.41745" lon="5.91622">
        <ele>317.85</ele>
        <time>2019-05-26T08:49:50Z</time>
      </trkpt>
      <trkpt lat="43.4168" lon="5.91644">
        <ele>317.85</ele>
        <time>2019-05-26T08:50:05Z</time>
      </trkpt>
      <trkpt lat="43.41632" lon="5.91628">
        <ele>317.37</ele>
        <time>2019-05-26T08:50:18Z</time>
      </trkpt>
      <trkpt lat="43.41605" lon="5.91614">
        <ele>316.89</ele>
        <time>2019-05-26T08:50:31Z</time>
      </trkpt>
      <trkpt lat="43.41605" lon="5.9161">
        <ele>316.89</ele>
        <time>2019-05-26T08:50:32Z</time>
      </trkpt>
      <trkpt lat="43.41605" lon="5.91608">
        <ele>316.89</ele>
        <time>2019-05-26T08:50:33Z</time>
      </trkpt>
      <trkpt lat="43.41606" lon="5.91606">
        <ele>316.89</ele>
        <time>2019-05-26T08:50:34Z</time>
      </trkpt>
      <trkpt lat="43.41607" lon="5.91603">
        <ele>316.89</ele>
        <time>2019-05-26T08:50:35Z</time>
      </trkpt>
      <trkpt lat="43.4163" lon="5.91548">
        <ele>318.33</ele>
        <time>2019-05-26T08:50:50Z</time>
      </trkpt>
      <trkpt lat="43.41666" lon="5.91474">
        <ele>318.33</ele>
        <time>2019-05-26T08:51:08Z</time>
      </trkpt>
      <trkpt lat="43.41711" lon="5.91383">
        <ele>318.81</ele>
        <time>2019-05-26T08:51:28Z</time>
      </trkpt>
      <trkpt lat="43.41754" lon="5.91296">
        <ele>318.81</ele>
        <time>2019-05-26T08:51:47Z</time>
      </trkpt>
      <trkpt lat="43.41804" lon="5.91194">
        <ele>318.81</ele>
        <time>2019-05-26T08:52:11Z</time>
      </trkpt>
      <trkpt lat="43.41847" lon="5.91104">
        <ele>318.81</ele>
        <time>2019-05-26T08:52:32Z</time>
      </trkpt>
      <trkpt lat="43.41899" lon="5.91001">
        <ele>318.81</ele>
        <time>2019-05-26T08:52:56Z</time>
      </trkpt>
      <trkpt lat="43.41948" lon="5.90901">
        <ele>319.3</ele>
        <time>2019-05-26T08:53:19Z</time>
      </trkpt>
      <trkpt lat="43.41988" lon="5.90823">
        <ele>320.74</ele>
        <time>2019-05-26T08:53:39Z</time>
      </trkpt>
      <trkpt lat="43.4203" lon="5.90769">
        <ele>321.7</ele>
        <time>2019-05-26T08:53:55Z</time>
      </trkpt>
      <trkpt lat="43.42033" lon="5.90767">
        <ele>321.7</ele>
        <time>2019-05-26T08:53:56Z</time>
      </trkpt>
      <trkpt lat="43.42107" lon="5.90737">
        <ele>321.7</ele>
        <time>2019-05-26T08:54:12Z</time>
      </trkpt>
      <trkpt lat="43.42159" lon="5.90718">
        <ele>320.26</ele>
        <time>2019-05-26T08:54:20Z</time>
      </trkpt>
      <trkpt lat="43.42278" lon="5.90677">
        <ele>319.78</ele>
        <time>2019-05-26T08:54:38Z</time>
      </trkpt>
      <trkpt lat="43.42329" lon="5.9066">
        <ele>321.22</ele>
        <time>2019-05-26T08:54:47Z</time>
      </trkpt>
      <trkpt lat="43.42364" lon="5.90639">
        <ele>322.66</ele>
        <time>2019-05-26T08:54:54Z</time>
      </trkpt>
      <trkpt lat="43.42368" lon="5.90635">
        <ele>322.66</ele>
        <time>2019-05-26T08:54:55Z</time>
      </trkpt>
      <trkpt lat="43.42371" lon="5.9063">
        <ele>323.14</ele>
        <time>2019-05-26T08:54:56Z</time>
      </trkpt>
      <trkpt lat="43.42389" lon="5.90598">
        <ele>323.62</ele>
        <time>2019-05-26T08:55:02Z</time>
      </trkpt>
      <trkpt lat="43.42416" lon="5.90536">
        <ele>326.5</ele>
        <time>2019-05-26T08:55:16Z</time>
      </trkpt>
      <trkpt lat="43.42442" lon="5.90478">
        <ele>327.95</ele>
        <time>2019-05-26T08:55:31Z</time>
      </trkpt>
      <trkpt lat="43.42459" lon="5.90432">
        <ele>326.5</ele>
        <time>2019-05-26T08:55:41Z</time>
      </trkpt>
      <trkpt lat="43.42461" lon="5.90427">
        <ele>326.5</ele>
        <time>2019-05-26T08:55:42Z</time>
      </trkpt>
      <trkpt lat="43.42466" lon="5.90411">
        <ele>325.54</ele>
        <time>2019-05-26T08:55:45Z</time>
      </trkpt>
      <trkpt lat="43.42469" lon="5.90406">
        <ele>325.06</ele>
        <time>2019-05-26T08:55:46Z</time>
      </trkpt>
      <trkpt lat="43.42473" lon="5.90401">
        <ele>324.58</ele>
        <time>2019-05-26T08:55:47Z</time>
      </trkpt>
      <trkpt lat="43.42497" lon="5.90379">
        <ele>322.66</ele>
        <time>2019-05-26T08:55:53Z</time>
      </trkpt>
      <trkpt lat="43.42501" lon="5.90377">
        <ele>322.66</ele>
        <time>2019-05-26T08:55:54Z</time>
      </trkpt>
      <trkpt lat="43.42504" lon="5.90375">
        <ele>322.66</ele>
        <time>2019-05-26T08:55:55Z</time>
      </trkpt>
      <trkpt lat="43.4252" lon="5.90373">
        <ele>321.22</ele>
        <time>2019-05-26T08:55:59Z</time>
      </trkpt>
      <trkpt lat="43.42549" lon="5.90388">
        <ele>320.26</ele>
        <time>2019-05-26T08:56:06Z</time>
      </trkpt>
      <trkpt lat="43.42556" lon="5.90399">
        <ele>319.3</ele>
        <time>2019-05-26T08:56:08Z</time>
      </trkpt>
      <trkpt lat="43.42563" lon="5.90409">
        <ele>318.33</ele>
        <time>2019-05-26T08:56:10Z</time>
      </trkpt>
      <trkpt lat="43.42567" lon="5.90413">
        <ele>317.85</ele>
        <time>2019-05-26T08:56:11Z</time>
      </trkpt>
      <trkpt lat="43.42572" lon="5.90416">
        <ele>317.85</ele>
        <time>2019-05-26T08:56:12Z</time>
      </trkpt>
      <trkpt lat="43.42576" lon="5.90417">
        <ele>317.37</ele>
        <time>2019-05-26T08:56:13Z</time>
      </trkpt>
      <trkpt lat="43.42581" lon="5.90418">
        <ele>316.89</ele>
        <time>2019-05-26T08:56:14Z</time>
      </trkpt>
      <trkpt lat="43.42585" lon="5.90419">
        <ele>316.89</ele>
        <time>2019-05-26T08:56:15Z</time>
      </trkpt>
      <trkpt lat="43.42622" lon="5.90435">
        <ele>313.53</ele>
        <time>2019-05-26T08:56:24Z</time>
      </trkpt>
      <trkpt lat="43.42651" lon="5.90441">
        <ele>310.16</ele>
        <time>2019-05-26T08:56:31Z</time>
      </trkpt>
      <trkpt lat="43.42656" lon="5.90443">
        <ele>310.16</ele>
        <time>2019-05-26T08:56:32Z</time>
      </trkpt>
      <trkpt lat="43.42662" lon="5.90445">
        <ele>309.68</ele>
        <time>2019-05-26T08:56:33Z</time>
      </trkpt>
      <trkpt lat="43.42668" lon="5.90449">
        <ele>309.68</ele>
        <time>2019-05-26T08:56:34Z</time>
      </trkpt>
      <trkpt lat="43.42673" lon="5.90452">
        <ele>309.2</ele>
        <time>2019-05-26T08:56:35Z</time>
      </trkpt>
      <trkpt lat="43.42678" lon="5.90457">
        <ele>309.2</ele>
        <time>2019-05-26T08:56:36Z</time>
      </trkpt>
      <trkpt lat="43.42684" lon="5.90462">
        <ele>309.2</ele>
        <time>2019-05-26T08:56:37Z</time>
      </trkpt>
      <trkpt lat="43.42699" lon="5.90473">
        <ele>308.72</ele>
        <time>2019-05-26T08:56:40Z</time>
      </trkpt>
      <trkpt lat="43.42709" lon="5.90478">
        <ele>308.24</ele>
        <time>2019-05-26T08:56:42Z</time>
      </trkpt>
      <trkpt lat="43.42714" lon="5.9048">
        <ele>308.24</ele>
        <time>2019-05-26T08:56:43Z</time>
      </trkpt>
      <trkpt lat="43.42735" lon="5.9048">
        <ele>309.2</ele>
        <time>2019-05-26T08:56:48Z</time>
      </trkpt>
      <trkpt lat="43.42739" lon="5.90479">
        <ele>310.16</ele>
        <time>2019-05-26T08:56:49Z</time>
      </trkpt>
      <trkpt lat="43.42742" lon="5.90477">
        <ele>310.16</ele>
        <time>2019-05-26T08:56:50Z</time>
      </trkpt>
      <trkpt lat="43.42779" lon="5.90463">
        <ele>311.12</ele>
        <time>2019-05-26T08:57:03Z</time>
      </trkpt>
      <trkpt lat="43.4281" lon="5.90451">
        <ele>309.68</ele>
        <time>2019-05-26T08:57:13Z</time>
      </trkpt>
      <trkpt lat="43.42817" lon="5.90447">
        <ele>309.2</ele>
        <time>2019-05-26T08:57:15Z</time>
      </trkpt>
      <trkpt lat="43.42828" lon="5.90442">
        <ele>308.24</ele>
        <time>2019-05-26T08:57:17Z</time>
      </trkpt>
      <trkpt lat="43.42833" lon="5.90441">
        <ele>308.24</ele>
        <time>2019-05-26T08:57:18Z</time>
      </trkpt>
      <trkpt lat="43.42846" lon="5.90441">
        <ele>308.24</ele>
        <time>2019-05-26T08:57:20Z</time>
      </trkpt>
      <trkpt lat="43.42898" lon="5.90439">
        <ele>308.24</ele>
        <time>2019-05-26T08:57:30Z</time>
      </trkpt>
      <trkpt lat="43.4296" lon="5.90433">
        <ele>308.24</ele>
        <time>2019-05-26T08:57:45Z</time>
      </trkpt>
      <trkpt lat="43.42994" lon="5.90428">
        <ele>310.16</ele>
        <time>2019-05-26T08:57:55Z</time>
      </trkpt>
      <trkpt lat="43.42996" lon="5.90425">
        <ele>310.16</ele>
        <time>2019-05-26T08:57:56Z</time>
      </trkpt>
      <trkpt lat="43.42998" lon="5.90422">
        <ele>310.64</ele>
        <time>2019-05-26T08:57:57Z</time>
      </trkpt>
      <trkpt lat="43.43" lon="5.90419">
        <ele>310.64</ele>
        <time>2019-05-26T08:57:58Z</time>
      </trkpt>
      <trkpt lat="43.43001" lon="5.90416">
        <ele>310.64</ele>
        <time>2019-05-26T08:57:59Z</time>
      </trkpt>
      <trkpt lat="43.43002" lon="5.90414">
        <ele>310.64</ele>
        <time>2019-05-26T08:58:00Z</time>
      </trkpt>
      <trkpt lat="43.43006" lon="5.90408">
        <ele>311.6</ele>
        <time>2019-05-26T08:58:03Z</time>
      </trkpt>
      <trkpt lat="43.43008" lon="5.90407">
        <ele>312.09</ele>
        <time>2019-05-26T08:58:04Z</time>
      </trkpt>
      <trkpt lat="43.43009" lon="5.90406">
        <ele>312.09</ele>
        <time>2019-05-26T08:58:05Z</time>
      </trkpt>
      <trkpt lat="43.43011" lon="5.90406">
        <ele>312.09</ele>
        <time>2019-05-26T08:58:06Z</time>
      </trkpt>
      <trkpt lat="43.43013" lon="5.90408">
        <ele>312.57</ele>
        <time>2019-05-26T08:58:07Z</time>
      </trkpt>
      <trkpt lat="43.43014" lon="5.9041">
        <ele>312.57</ele>
        <time>2019-05-26T08:58:08Z</time>
      </trkpt>
      <trkpt lat="43.43015" lon="5.90412">
        <ele>313.05</ele>
        <time>2019-05-26T08:58:09Z</time>
      </trkpt>
      <trkpt lat="43.43039" lon="5.90434">
        <ele>314.49</ele>
        <time>2019-05-26T08:58:22Z</time>
      </trkpt>
      <trkpt lat="43.43075" lon="5.90432">
        <ele>314.49</ele>
        <time>2019-05-26T08:58:34Z</time>
      </trkpt>
      <trkpt lat="43.43093" lon="5.90412">
        <ele>313.05</ele>
        <time>2019-05-26T08:58:41Z</time>
      </trkpt>
      <trkpt lat="43.4312" lon="5.90399">
        <ele>313.05</ele>
        <time>2019-05-26T08:58:50Z</time>
      </trkpt>
      <trkpt lat="43.4315" lon="5.90382">
        <ele>313.05</ele>
        <time>2019-05-26T08:59:03Z</time>
      </trkpt>
      <trkpt lat="43.43167" lon="5.90358">
        <ele>311.12</ele>
        <time>2019-05-26T08:59:09Z</time>
      </trkpt>
      <trkpt lat="43.43178" lon="5.90355">
        <ele>309.68</ele>
        <time>2019-05-26T08:59:12Z</time>
      </trkpt>
      <trkpt lat="43.43182" lon="5.90355">
        <ele>308.72</ele>
        <time>2019-05-26T08:59:13Z</time>
      </trkpt>
      <trkpt lat="43.43186" lon="5.90356">
        <ele>308.72</ele>
        <time>2019-05-26T08:59:14Z</time>
      </trkpt>
      <trkpt lat="43.43189" lon="5.90357">
        <ele>308.24</ele>
        <time>2019-05-26T08:59:15Z</time>
      </trkpt>
      <trkpt lat="43.43192" lon="5.90357">
        <ele>308.24</ele>
        <time>2019-05-26T08:59:16Z</time>
      </trkpt>
      <trkpt lat="43.43222" lon="5.90351">
        <ele>307.28</ele>
        <time>2019-05-26T08:59:26Z</time>
      </trkpt>
      <trkpt lat="43.43246" lon="5.90326">
        <ele>303.91</ele>
        <time>2019-05-26T08:59:35Z</time>
      </trkpt>
      <trkpt lat="43.43258" lon="5.9032">
        <ele>301.03</ele>
        <time>2019-05-26T08:59:40Z</time>
      </trkpt>
      <trkpt lat="43.43274" lon="5.90312">
        <ele>298.15</ele>
        <time>2019-05-26T08:59:46Z</time>
      </trkpt>
      <trkpt lat="43.43284" lon="5.90311">
        <ele>297.67</ele>
        <time>2019-05-26T08:59:51Z</time>
      </trkpt>
      <trkpt lat="43.43297" lon="5.90308">
        <ele>297.67</ele>
        <time>2019-05-26T09:00:05Z</time>
      </trkpt>
      <trkpt lat="43.43328" lon="5.90288">
        <ele>296.22</ele>
        <time>2019-05-26T09:00:16Z</time>
      </trkpt>
      <trkpt lat="43.43355" lon="5.90276">
        <ele>296.22</ele>
        <time>2019-05-26T09:00:28Z</time>
      </trkpt>
      <trkpt lat="43.43356" lon="5.90275">
        <ele>296.22</ele>
        <time>2019-05-26T09:00:29Z</time>
      </trkpt>
      <trkpt lat="43.43386" lon="5.90239">
        <ele>295.74</ele>
        <time>2019-05-26T09:00:44Z</time>
      </trkpt>
      <trkpt lat="43.43411" lon="5.90213">
        <ele>295.26</ele>
        <time>2019-05-26T09:00:56Z</time>
      </trkpt>
      <trkpt lat="43.43456" lon="5.90218">
        <ele>295.26</ele>
        <time>2019-05-26T09:01:12Z</time>
      </trkpt>
      <trkpt lat="43.43494" lon="5.90238">
        <ele>295.26</ele>
        <time>2019-05-26T09:01:28Z</time>
      </trkpt>
      <trkpt lat="43.43514" lon="5.90212">
        <ele>295.26</ele>
        <time>2019-05-26T09:01:39Z</time>
      </trkpt>
      <trkpt lat="43.43544" lon="5.90183">
        <ele>295.26</ele>
        <time>2019-05-26T09:01:53Z</time>
      </trkpt>
      <trkpt lat="43.43562" lon="5.9016">
        <ele>295.26</ele>
        <time>2019-05-26T09:02:05Z</time>
      </trkpt>
      <trkpt lat="43.43567" lon="5.90157">
        <ele>294.78</ele>
        <time>2019-05-26T09:02:08Z</time>
      </trkpt>
      <trkpt lat="43.43578" lon="5.90163">
        <ele>294.3</ele>
        <time>2019-05-26T09:02:13Z</time>
      </trkpt>
      <trkpt lat="43.4361" lon="5.90179">
        <ele>294.3</ele>
        <time>2019-05-26T09:02:25Z</time>
      </trkpt>
      <trkpt lat="43.43633" lon="5.90186">
        <ele>295.26</ele>
        <time>2019-05-26T09:02:35Z</time>
      </trkpt>
      <trkpt lat="43.43664" lon="5.90191">
        <ele>296.22</ele>
        <time>2019-05-26T09:02:50Z</time>
      </trkpt>
      <trkpt lat="43.43686" lon="5.90194">
        <ele>296.7</ele>
        <time>2019-05-26T09:03:00Z</time>
      </trkpt>
      <trkpt lat="43.43696" lon="5.90184">
        <ele>296.7</ele>
        <time>2019-05-26T09:03:11Z</time>
      </trkpt>
      <trkpt lat="43.43712" lon="5.90163">
        <ele>298.15</ele>
        <time>2019-05-26T09:03:28Z</time>
      </trkpt>
      <trkpt lat="43.43715" lon="5.90164">
        <ele>298.15</ele>
        <time>2019-05-26T09:03:42Z</time>
      </trkpt>
      <trkpt lat="43.43713" lon="5.90166">
        <ele>298.63</ele>
        <time>2019-05-26T09:04:21Z</time>
      </trkpt>
      <trkpt lat="43.43713" lon="5.90165">
        <ele>298.63</ele>
        <time>2019-05-26T09:04:39Z</time>
      </trkpt>
      <trkpt lat="43.43712" lon="5.90162">
        <ele>298.15</ele>
        <time>2019-05-26T09:04:55Z</time>
      </trkpt>
      <trkpt lat="43.43711" lon="5.90161">
        <ele>298.15</ele>
        <time>2019-05-26T09:04:58Z</time>
      </trkpt>
      <trkpt lat="43.43695" lon="5.9013">
        <ele>297.18</ele>
        <time>2019-05-26T09:05:14Z</time>
      </trkpt>
      <trkpt lat="43.4369" lon="5.90077">
        <ele>295.74</ele>
        <time>2019-05-26T09:05:27Z</time>
      </trkpt>
      <trkpt lat="43.43707" lon="5.90031">
        <ele>295.26</ele>
        <time>2019-05-26T09:05:38Z</time>
      </trkpt>
      <trkpt lat="43.43739" lon="5.89986">
        <ele>294.3</ele>
        <time>2019-05-26T09:05:50Z</time>
      </trkpt>
      <trkpt lat="43.43741" lon="5.89981">
        <ele>293.82</ele>
        <time>2019-05-26T09:05:51Z</time>
      </trkpt>
      <trkpt lat="43.4377" lon="5.89925">
        <ele>293.34</ele>
        <time>2019-05-26T09:06:05Z</time>
      </trkpt>
      <trkpt lat="43.43803" lon="5.89879">
        <ele>292.86</ele>
        <time>2019-05-26T09:06:20Z</time>
      </trkpt>
      <trkpt lat="43.43816" lon="5.89827">
        <ele>291.9</ele>
        <time>2019-05-26T09:06:32Z</time>
      </trkpt>
      <trkpt lat="43.43844" lon="5.89788">
        <ele>289.97</ele>
        <time>2019-05-26T09:06:44Z</time>
      </trkpt>
      <trkpt lat="43.43885" lon="5.89786">
        <ele>289.49</ele>
        <time>2019-05-26T09:06:55Z</time>
      </trkpt>
      <trkpt lat="43.43925" lon="5.89787">
        <ele>289.01</ele>
        <time>2019-05-26T09:07:08Z</time>
      </trkpt>
      <trkpt lat="43.43961" lon="5.89796">
        <ele>289.01</ele>
        <time>2019-05-26T09:07:21Z</time>
      </trkpt>
      <trkpt lat="43.43999" lon="5.89806">
        <ele>289.01</ele>
        <time>2019-05-26T09:07:31Z</time>
      </trkpt>
      <trkpt lat="43.44031" lon="5.89777">
        <ele>289.01</ele>
        <time>2019-05-26T09:07:43Z</time>
      </trkpt>
      <trkpt lat="43.44065" lon="5.89743">
        <ele>290.46</ele>
        <time>2019-05-26T09:07:54Z</time>
      </trkpt>
      <trkpt lat="43.44098" lon="5.897">
        <ele>291.9</ele>
        <time>2019-05-26T09:08:07Z</time>
      </trkpt>
      <trkpt lat="43.441" lon="5.89689">
        <ele>291.9</ele>
        <time>2019-05-26T09:08:09Z</time>
      </trkpt>
      <trkpt lat="43.44101" lon="5.89684">
        <ele>291.9</ele>
        <time>2019-05-26T09:08:10Z</time>
      </trkpt>
      <trkpt lat="43.44098" lon="5.89579">
        <ele>292.86</ele>
        <time>2019-05-26T09:08:28Z</time>
      </trkpt>
      <trkpt lat="43.44097" lon="5.89574">
        <ele>292.86</ele>
        <time>2019-05-26T09:08:29Z</time>
      </trkpt>
      <trkpt lat="43.44091" lon="5.89551">
        <ele>293.34</ele>
        <time>2019-05-26T09:08:33Z</time>
      </trkpt>
      <trkpt lat="43.4409" lon="5.8948">
        <ele>293.82</ele>
        <time>2019-05-26T09:08:47Z</time>
      </trkpt>
      <trkpt lat="43.4412" lon="5.89433">
        <ele>295.26</ele>
        <time>2019-05-26T09:08:59Z</time>
      </trkpt>
      <trkpt lat="43.44153" lon="5.89413">
        <ele>296.22</ele>
        <time>2019-05-26T09:09:09Z</time>
      </trkpt>
      <trkpt lat="43.44209" lon="5.89413">
        <ele>299.11</ele>
        <time>2019-05-26T09:09:25Z</time>
      </trkpt>
      <trkpt lat="43.44244" lon="5.89389">
        <ele>300.55</ele>
        <time>2019-05-26T09:09:37Z</time>
      </trkpt>
      <trkpt lat="43.44271" lon="5.89328">
        <ele>301.03</ele>
        <time>2019-05-26T09:09:52Z</time>
      </trkpt>
      <trkpt lat="43.44299" lon="5.89272">
        <ele>301.99</ele>
        <time>2019-05-26T09:10:06Z</time>
      </trkpt>
      <trkpt lat="43.44314" lon="5.89211">
        <ele>303.43</ele>
        <time>2019-05-26T09:10:19Z</time>
      </trkpt>
      <trkpt lat="43.4434" lon="5.89096">
        <ele>303.43</ele>
        <time>2019-05-26T09:10:39Z</time>
      </trkpt>
      <trkpt lat="43.44358" lon="5.89003">
        <ele>303.43</ele>
        <time>2019-05-26T09:10:55Z</time>
      </trkpt>
      <trkpt lat="43.44366" lon="5.88963">
        <ele>303.91</ele>
        <time>2019-05-26T09:11:02Z</time>
      </trkpt>
      <trkpt lat="43.44367" lon="5.88957">
        <ele>303.91</ele>
        <time>2019-05-26T09:11:03Z</time>
      </trkpt>
      <trkpt lat="43.44373" lon="5.88872">
        <ele>304.39</ele>
        <time>2019-05-26T09:11:19Z</time>
      </trkpt>
      <trkpt lat="43.4439" lon="5.88795">
        <ele>305.84</ele>
        <time>2019-05-26T09:11:34Z</time>
      </trkpt>
      <trkpt lat="43.44432" lon="5.8874">
        <ele>307.28</ele>
        <time>2019-05-26T09:11:50Z</time>
      </trkpt>
      <trkpt lat="43.44479" lon="5.88722">
        <ele>309.68</ele>
        <time>2019-05-26T09:12:04Z</time>
      </trkpt>
      <trkpt lat="43.445" lon="5.88716">
        <ele>311.6</ele>
        <time>2019-05-26T09:12:16Z</time>
      </trkpt>
      <trkpt lat="43.445" lon="5.88715">
        <ele>311.6</ele>
        <time>2019-05-26T09:12:17Z</time>
      </trkpt>
      <trkpt lat="43.44501" lon="5.88714">
        <ele>311.6</ele>
        <time>2019-05-26T09:12:18Z</time>
      </trkpt>
      <trkpt lat="43.44503" lon="5.88712">
        <ele>312.57</ele>
        <time>2019-05-26T09:12:19Z</time>
      </trkpt>
      <trkpt lat="43.44504" lon="5.88711">
        <ele>312.57</ele>
        <time>2019-05-26T09:12:20Z</time>
      </trkpt>
      <trkpt lat="43.44505" lon="5.8871">
        <ele>313.05</ele>
        <time>2019-05-26T09:12:21Z</time>
      </trkpt>
      <trkpt lat="43.44507" lon="5.88708">
        <ele>313.05</ele>
        <time>2019-05-26T09:12:22Z</time>
      </trkpt>
      <trkpt lat="43.44509" lon="5.88707">
        <ele>313.53</ele>
        <time>2019-05-26T09:12:23Z</time>
      </trkpt>
      <trkpt lat="43.44511" lon="5.88705">
        <ele>313.53</ele>
        <time>2019-05-26T09:12:24Z</time>
      </trkpt>
      <trkpt lat="43.44513" lon="5.88704">
        <ele>313.53</ele>
        <time>2019-05-26T09:12:25Z</time>
      </trkpt>
      <trkpt lat="43.44541" lon="5.88676">
        <ele>315.45</ele>
        <time>2019-05-26T09:12:40Z</time>
      </trkpt>
      <trkpt lat="43.44572" lon="5.88676">
        <ele>315.45</ele>
        <time>2019-05-26T09:12:51Z</time>
      </trkpt>
      <trkpt lat="43.4458" lon="5.88672">
        <ele>315.45</ele>
        <time>2019-05-26T09:12:53Z</time>
      </trkpt>
      <trkpt lat="43.44583" lon="5.88667">
        <ele>314.01</ele>
        <time>2019-05-26T09:12:54Z</time>
      </trkpt>
      <trkpt lat="43.44584" lon="5.88663">
        <ele>313.05</ele>
        <time>2019-05-26T09:12:55Z</time>
      </trkpt>
      <trkpt lat="43.44583" lon="5.88658">
        <ele>313.05</ele>
        <time>2019-05-26T09:12:56Z</time>
      </trkpt>
      <trkpt lat="43.44583" lon="5.88654">
        <ele>312.57</ele>
        <time>2019-05-26T09:12:57Z</time>
      </trkpt>
      <trkpt lat="43.44582" lon="5.8865">
        <ele>312.57</ele>
        <time>2019-05-26T09:12:58Z</time>
      </trkpt>
      <trkpt lat="43.44581" lon="5.88646">
        <ele>311.6</ele>
        <time>2019-05-26T09:12:59Z</time>
      </trkpt>
      <trkpt lat="43.44579" lon="5.88642">
        <ele>311.6</ele>
        <time>2019-05-26T09:13:00Z</time>
      </trkpt>
      <trkpt lat="43.44571" lon="5.88627">
        <ele>310.64</ele>
        <time>2019-05-26T09:13:03Z</time>
      </trkpt>
      <trkpt lat="43.44568" lon="5.88621">
        <ele>309.68</ele>
        <time>2019-05-26T09:13:04Z</time>
      </trkpt>
      <trkpt lat="43.44565" lon="5.88615">
        <ele>309.68</ele>
        <time>2019-05-26T09:13:05Z</time>
      </trkpt>
      <trkpt lat="43.44561" lon="5.88605">
        <ele>308.24</ele>
        <time>2019-05-26T09:13:07Z</time>
      </trkpt>
      <trkpt lat="43.44561" lon="5.886">
        <ele>308.24</ele>
        <time>2019-05-26T09:13:08Z</time>
      </trkpt>
      <trkpt lat="43.4456" lon="5.88593">
        <ele>307.28</ele>
        <time>2019-05-26T09:13:09Z</time>
      </trkpt>
      <trkpt lat="43.4456" lon="5.88584">
        <ele>306.32</ele>
        <time>2019-05-26T09:13:10Z</time>
      </trkpt>
      <trkpt lat="43.44561" lon="5.88575">
        <ele>305.84</ele>
        <time>2019-05-26T09:13:11Z</time>
      </trkpt>
      <trkpt lat="43.44562" lon="5.88566">
        <ele>305.84</ele>
        <time>2019-05-26T09:13:12Z</time>
      </trkpt>
      <trkpt lat="43.44565" lon="5.88551">
        <ele>304.88</ele>
        <time>2019-05-26T09:13:14Z</time>
      </trkpt>
      <trkpt lat="43.44575" lon="5.88456">
        <ele>302.47</ele>
        <time>2019-05-26T09:13:25Z</time>
      </trkpt>
      <trkpt lat="43.44574" lon="5.88447">
        <ele>302.47</ele>
        <time>2019-05-26T09:13:26Z</time>
      </trkpt>
      <trkpt lat="43.44575" lon="5.88349">
        <ele>301.51</ele>
        <time>2019-05-26T09:13:40Z</time>
      </trkpt>
      <trkpt lat="43.44576" lon="5.88343">
        <ele>301.51</ele>
        <time>2019-05-26T09:13:41Z</time>
      </trkpt>
      <trkpt lat="43.44577" lon="5.88337">
        <ele>301.51</ele>
        <time>2019-05-26T09:13:42Z</time>
      </trkpt>
      <trkpt lat="43.44577" lon="5.88331">
        <ele>301.51</ele>
        <time>2019-05-26T09:13:43Z</time>
      </trkpt>
      <trkpt lat="43.44576" lon="5.88324">
        <ele>301.51</ele>
        <time>2019-05-26T09:13:44Z</time>
      </trkpt>
      <trkpt lat="43.44575" lon="5.88319">
        <ele>301.51</ele>
        <time>2019-05-26T09:13:45Z</time>
      </trkpt>
      <trkpt lat="43.44573" lon="5.88313">
        <ele>301.51</ele>
        <time>2019-05-26T09:13:46Z</time>
      </trkpt>
      <trkpt lat="43.44569" lon="5.88253">
        <ele>301.51</ele>
        <time>2019-05-26T09:13:57Z</time>
      </trkpt>
      <trkpt lat="43.44573" lon="5.88213">
        <ele>301.51</ele>
        <time>2019-05-26T09:14:04Z</time>
      </trkpt>
      <trkpt lat="43.44587" lon="5.88129">
        <ele>302.47</ele>
        <time>2019-05-26T09:14:19Z</time>
      </trkpt>
      <trkpt lat="43.44588" lon="5.88116">
        <ele>302.47</ele>
        <time>2019-05-26T09:14:21Z</time>
      </trkpt>
      <trkpt lat="43.44589" lon="5.88108">
        <ele>302.47</ele>
        <time>2019-05-26T09:14:22Z</time>
      </trkpt>
      <trkpt lat="43.44593" lon="5.88095">
        <ele>302.47</ele>
        <time>2019-05-26T09:14:24Z</time>
      </trkpt>
      <trkpt lat="43.44594" lon="5.88089">
        <ele>302.47</ele>
        <time>2019-05-26T09:14:25Z</time>
      </trkpt>
      <trkpt lat="43.44611" lon="5.87997">
        <ele>303.43</ele>
        <time>2019-05-26T09:14:41Z</time>
      </trkpt>
      <trkpt lat="43.44621" lon="5.87962">
        <ele>303.43</ele>
        <time>2019-05-26T09:14:47Z</time>
      </trkpt>
      <trkpt lat="43.44623" lon="5.87957">
        <ele>303.43</ele>
        <time>2019-05-26T09:14:48Z</time>
      </trkpt>
      <trkpt lat="43.44626" lon="5.87951">
        <ele>303.43</ele>
        <time>2019-05-26T09:14:49Z</time>
      </trkpt>
      <trkpt lat="43.44628" lon="5.87944">
        <ele>303.43</ele>
        <time>2019-05-26T09:14:50Z</time>
      </trkpt>
      <trkpt lat="43.44629" lon="5.87938">
        <ele>303.43</ele>
        <time>2019-05-26T09:14:51Z</time>
      </trkpt>
      <trkpt lat="43.44633" lon="5.87924">
        <ele>302.47</ele>
        <time>2019-05-26T09:14:53Z</time>
      </trkpt>
      <trkpt lat="43.4466" lon="5.87814">
        <ele>301.03</ele>
        <time>2019-05-26T09:15:07Z</time>
      </trkpt>
      <trkpt lat="43.44665" lon="5.87797">
        <ele>300.55</ele>
        <time>2019-05-26T09:15:09Z</time>
      </trkpt>
      <trkpt lat="43.44707" lon="5.87671">
        <ele>298.63</ele>
        <time>2019-05-26T09:15:25Z</time>
      </trkpt>
      <trkpt lat="43.44736" lon="5.8755">
        <ele>297.67</ele>
        <time>2019-05-26T09:15:43Z</time>
      </trkpt>
      <trkpt lat="43.44771" lon="5.87438">
        <ele>297.67</ele>
        <time>2019-05-26T09:16:01Z</time>
      </trkpt>
      <trkpt lat="43.448" lon="5.87373">
        <ele>299.11</ele>
        <time>2019-05-26T09:16:14Z</time>
      </trkpt>
      <trkpt lat="43.44834" lon="5.87333">
        <ele>300.07</ele>
        <time>2019-05-26T09:16:27Z</time>
      </trkpt>
      <trkpt lat="43.44865" lon="5.87311">
        <ele>302.95</ele>
        <time>2019-05-26T09:16:38Z</time>
      </trkpt>
      <trkpt lat="43.44894" lon="5.87258">
        <ele>303.91</ele>
        <time>2019-05-26T09:16:53Z</time>
      </trkpt>
      <trkpt lat="43.44903" lon="5.87188">
        <ele>303.91</ele>
        <time>2019-05-26T09:17:05Z</time>
      </trkpt>
      <trkpt lat="43.44909" lon="5.87109">
        <ele>303.91</ele>
        <time>2019-05-26T09:17:19Z</time>
      </trkpt>
      <trkpt lat="43.44912" lon="5.87099">
        <ele>303.91</ele>
        <time>2019-05-26T09:17:21Z</time>
      </trkpt>
      <trkpt lat="43.44915" lon="5.87094">
        <ele>303.91</ele>
        <time>2019-05-26T09:17:22Z</time>
      </trkpt>
      <trkpt lat="43.44919" lon="5.8709">
        <ele>303.91</ele>
        <time>2019-05-26T09:17:23Z</time>
      </trkpt>
      <trkpt lat="43.4498" lon="5.87041">
        <ele>305.36</ele>
        <time>2019-05-26T09:17:39Z</time>
      </trkpt>
      <trkpt lat="43.44978" lon="5.87002">
        <ele>306.32</ele>
        <time>2019-05-26T09:17:48Z</time>
      </trkpt>
      <trkpt lat="43.4497" lon="5.86945">
        <ele>308.24</ele>
        <time>2019-05-26T09:18:03Z</time>
      </trkpt>
      <trkpt lat="43.44979" lon="5.86887">
        <ele>309.2</ele>
        <time>2019-05-26T09:18:16Z</time>
      </trkpt>
      <trkpt lat="43.44998" lon="5.8683">
        <ele>310.16</ele>
        <time>2019-05-26T09:18:31Z</time>
      </trkpt>
      <trkpt lat="43.4502" lon="5.86802">
        <ele>308.72</ele>
        <time>2019-05-26T09:18:37Z</time>
      </trkpt>
      <trkpt lat="43.45037" lon="5.86784">
        <ele>308.24</ele>
        <time>2019-05-26T09:18:41Z</time>
      </trkpt>
      <trkpt lat="43.45087" lon="5.86719">
        <ele>307.76</ele>
        <time>2019-05-26T09:18:55Z</time>
      </trkpt>
      <trkpt lat="43.45099" lon="5.86699">
        <ele>307.28</ele>
        <time>2019-05-26T09:18:59Z</time>
      </trkpt>
      <trkpt lat="43.45129" lon="5.86651">
        <ele>307.28</ele>
        <time>2019-05-26T09:19:09Z</time>
      </trkpt>
      <trkpt lat="43.45133" lon="5.86641">
        <ele>307.28</ele>
        <time>2019-05-26T09:19:11Z</time>
      </trkpt>
      <trkpt lat="43.45134" lon="5.86636">
        <ele>307.28</ele>
        <time>2019-05-26T09:19:12Z</time>
      </trkpt>
      <trkpt lat="43.4514" lon="5.86604">
        <ele>307.28</ele>
        <time>2019-05-26T09:19:18Z</time>
      </trkpt>
      <trkpt lat="43.4514" lon="5.86598">
        <ele>307.28</ele>
        <time>2019-05-26T09:19:19Z</time>
      </trkpt>
      <trkpt lat="43.45138" lon="5.86592">
        <ele>307.28</ele>
        <time>2019-05-26T09:19:20Z</time>
      </trkpt>
      <trkpt lat="43.45136" lon="5.86587">
        <ele>307.28</ele>
        <time>2019-05-26T09:19:21Z</time>
      </trkpt>
      <trkpt lat="43.45133" lon="5.86584">
        <ele>307.28</ele>
        <time>2019-05-26T09:19:22Z</time>
      </trkpt>
      <trkpt lat="43.45129" lon="5.8658">
        <ele>307.28</ele>
        <time>2019-05-26T09:19:23Z</time>
      </trkpt>
      <trkpt lat="43.45126" lon="5.86578">
        <ele>307.28</ele>
        <time>2019-05-26T09:19:24Z</time>
      </trkpt>
      <trkpt lat="43.45102" lon="5.86556">
        <ele>308.24</ele>
        <time>2019-05-26T09:19:31Z</time>
      </trkpt>
      <trkpt lat="43.45068" lon="5.86532">
        <ele>309.2</ele>
        <time>2019-05-26T09:19:41Z</time>
      </trkpt>
      <trkpt lat="43.45016" lon="5.86464">
        <ele>310.64</ele>
        <time>2019-05-26T09:19:59Z</time>
      </trkpt>
      <trkpt lat="43.44995" lon="5.86417">
        <ele>312.09</ele>
        <time>2019-05-26T09:20:09Z</time>
      </trkpt>
      <trkpt lat="43.44992" lon="5.86412">
        <ele>312.09</ele>
        <time>2019-05-26T09:20:10Z</time>
      </trkpt>
      <trkpt lat="43.4499" lon="5.86407">
        <ele>312.09</ele>
        <time>2019-05-26T09:20:11Z</time>
      </trkpt>
      <trkpt lat="43.44987" lon="5.86403">
        <ele>312.57</ele>
        <time>2019-05-26T09:20:12Z</time>
      </trkpt>
      <trkpt lat="43.44984" lon="5.864">
        <ele>312.57</ele>
        <time>2019-05-26T09:20:13Z</time>
      </trkpt>
      <trkpt lat="43.4498" lon="5.86396">
        <ele>313.05</ele>
        <time>2019-05-26T09:20:14Z</time>
      </trkpt>
      <trkpt lat="43.44923" lon="5.86352">
        <ele>313.53</ele>
        <time>2019-05-26T09:20:29Z</time>
      </trkpt>
      <trkpt lat="43.44869" lon="5.86311">
        <ele>314.49</ele>
        <time>2019-05-26T09:20:45Z</time>
      </trkpt>
      <trkpt lat="43.44862" lon="5.86294">
        <ele>314.97</ele>
        <time>2019-05-26T09:20:49Z</time>
      </trkpt>
      <trkpt lat="43.44858" lon="5.86292">
        <ele>314.97</ele>
        <time>2019-05-26T09:20:50Z</time>
      </trkpt>
      <trkpt lat="43.44856" lon="5.86292">
        <ele>314.97</ele>
        <time>2019-05-26T09:20:51Z</time>
      </trkpt>
      <trkpt lat="43.44853" lon="5.86293">
        <ele>314.97</ele>
        <time>2019-05-26T09:20:52Z</time>
      </trkpt>
      <trkpt lat="43.4485" lon="5.86295">
        <ele>314.97</ele>
        <time>2019-05-26T09:20:53Z</time>
      </trkpt>
      <trkpt lat="43.44847" lon="5.86297">
        <ele>314.97</ele>
        <time>2019-05-26T09:20:54Z</time>
      </trkpt>
      <trkpt lat="43.44804" lon="5.86349">
        <ele>315.93</ele>
        <time>2019-05-26T09:21:12Z</time>
      </trkpt>
      <trkpt lat="43.44771" lon="5.86396">
        <ele>316.89</ele>
        <time>2019-05-26T09:21:25Z</time>
      </trkpt>
      <trkpt lat="43.44768" lon="5.864">
        <ele>316.89</ele>
        <time>2019-05-26T09:21:26Z</time>
      </trkpt>
      <trkpt lat="43.44722" lon="5.86431">
        <ele>319.3</ele>
        <time>2019-05-26T09:21:39Z</time>
      </trkpt>
      <trkpt lat="43.4469" lon="5.86453">
        <ele>323.14</ele>
        <time>2019-05-26T09:21:50Z</time>
      </trkpt>
      <trkpt lat="43.44646" lon="5.86465">
        <ele>325.54</ele>
        <time>2019-05-26T09:22:05Z</time>
      </trkpt>
      <trkpt lat="43.44633" lon="5.86462">
        <ele>325.54</ele>
        <time>2019-05-26T09:22:16Z</time>
      </trkpt>
      <trkpt lat="43.44624" lon="5.86464">
        <ele>325.54</ele>
        <time>2019-05-26T09:22:24Z</time>
      </trkpt>
      <trkpt lat="43.44621" lon="5.86467">
        <ele>325.54</ele>
        <time>2019-05-26T09:22:31Z</time>
      </trkpt>
      <trkpt lat="43.44616" lon="5.86467">
        <ele>325.54</ele>
        <time>2019-05-26T09:22:35Z</time>
      </trkpt>
      <trkpt lat="43.44598" lon="5.86462">
        <ele>326.5</ele>
        <time>2019-05-26T09:22:47Z</time>
      </trkpt>
      <trkpt lat="43.44569" lon="5.86458">
        <ele>326.99</ele>
        <time>2019-05-26T09:22:56Z</time>
      </trkpt>
      <trkpt lat="43.44544" lon="5.8645">
        <ele>327.47</ele>
        <time>2019-05-26T09:23:04Z</time>
      </trkpt>
      <trkpt lat="43.44543" lon="5.8645">
        <ele>327.47</ele>
        <time>2019-05-26T09:23:05Z</time>
      </trkpt>
      <trkpt lat="43.44541" lon="5.8645">
        <ele>327.47</ele>
        <time>2019-05-26T09:23:06Z</time>
      </trkpt>
      <trkpt lat="43.44539" lon="5.86449">
        <ele>327.47</ele>
        <time>2019-05-26T09:23:07Z</time>
      </trkpt>
      <trkpt lat="43.44538" lon="5.86446">
        <ele>327.47</ele>
        <time>2019-05-26T09:23:08Z</time>
      </trkpt>
      <trkpt lat="43.44538" lon="5.86443">
        <ele>327.95</ele>
        <time>2019-05-26T09:23:09Z</time>
      </trkpt>
      <trkpt lat="43.44537" lon="5.86439">
        <ele>327.95</ele>
        <time>2019-05-26T09:23:10Z</time>
      </trkpt>
      <trkpt lat="43.44535" lon="5.86388">
        <ele>328.43</ele>
        <time>2019-05-26T09:23:21Z</time>
      </trkpt>
      <trkpt lat="43.44536" lon="5.86376">
        <ele>328.43</ele>
        <time>2019-05-26T09:23:24Z</time>
      </trkpt>
      <trkpt lat="43.44534" lon="5.86374">
        <ele>328.43</ele>
        <time>2019-05-26T09:23:25Z</time>
      </trkpt>
      <trkpt lat="43.44533" lon="5.86374">
        <ele>328.43</ele>
        <time>2019-05-26T09:23:26Z</time>
      </trkpt>
      <trkpt lat="43.4453" lon="5.86373">
        <ele>328.43</ele>
        <time>2019-05-26T09:23:30Z</time>
      </trkpt>
      <trkpt lat="43.44526" lon="5.8637">
        <ele>328.43</ele>
        <time>2019-05-26T09:23:40Z</time>
      </trkpt>
      <trkpt lat="43.44524" lon="5.8637">
        <ele>328.43</ele>
        <time>2019-05-26T09:23:41Z</time>
      </trkpt>
      <trkpt lat="43.44508" lon="5.86362">
        <ele>328.43</ele>
        <time>2019-05-26T09:23:54Z</time>
      </trkpt>
      <trkpt lat="43.44504" lon="5.86353">
        <ele>328.91</ele>
        <time>2019-05-26T09:24:05Z</time>
      </trkpt>
      <trkpt lat="43.44504" lon="5.86344">
        <ele>329.39</ele>
        <time>2019-05-26T09:24:12Z</time>
      </trkpt>
      <trkpt lat="43.44503" lon="5.86335">
        <ele>329.39</ele>
        <time>2019-05-26T09:24:17Z</time>
      </trkpt>
      <trkpt lat="43.44501" lon="5.86303">
        <ele>329.39</ele>
        <time>2019-05-26T09:24:30Z</time>
      </trkpt>
      <trkpt lat="43.44494" lon="5.86275">
        <ele>329.39</ele>
        <time>2019-05-26T09:24:45Z</time>
      </trkpt>
      <trkpt lat="43.44484" lon="5.86243">
        <ele>330.35</ele>
        <time>2019-05-26T09:24:58Z</time>
      </trkpt>
      <trkpt lat="43.44479" lon="5.86195">
        <ele>330.83</ele>
        <time>2019-05-26T09:25:15Z</time>
      </trkpt>
      <trkpt lat="43.44484" lon="5.8615">
        <ele>327.95</ele>
        <time>2019-05-26T09:25:23Z</time>
      </trkpt>
      <trkpt lat="43.44484" lon="5.86118">
        <ele>326.5</ele>
        <time>2019-05-26T09:25:29Z</time>
      </trkpt>
      <trkpt lat="43.44482" lon="5.86115">
        <ele>326.5</ele>
        <time>2019-05-26T09:25:30Z</time>
      </trkpt>
      <trkpt lat="43.44479" lon="5.86113">
        <ele>326.5</ele>
        <time>2019-05-26T09:25:31Z</time>
      </trkpt>
      <trkpt lat="43.44475" lon="5.86113">
        <ele>326.5</ele>
        <time>2019-05-26T09:25:32Z</time>
      </trkpt>
      <trkpt lat="43.44472" lon="5.86113">
        <ele>326.5</ele>
        <time>2019-05-26T09:25:33Z</time>
      </trkpt>
      <trkpt lat="43.44443" lon="5.86114">
        <ele>327.95</ele>
        <time>2019-05-26T09:25:43Z</time>
      </trkpt>
      <trkpt lat="43.44411" lon="5.86115">
        <ele>329.87</ele>
        <time>2019-05-26T09:25:56Z</time>
      </trkpt>
      <trkpt lat="43.4441" lon="5.86087">
        <ele>329.87</ele>
        <time>2019-05-26T09:26:10Z</time>
      </trkpt>
      <trkpt lat="43.44406" lon="5.86078">
        <ele>330.35</ele>
        <time>2019-05-26T09:26:19Z</time>
      </trkpt>
      <trkpt lat="43.44391" lon="5.86096">
        <ele>331.79</ele>
        <time>2019-05-26T09:26:28Z</time>
      </trkpt>
      <trkpt lat="43.44359" lon="5.86154">
        <ele>334.2</ele>
        <time>2019-05-26T09:26:44Z</time>
      </trkpt>
      <trkpt lat="43.44316" lon="5.86193">
        <ele>336.6</ele>
        <time>2019-05-26T09:26:59Z</time>
      </trkpt>
      <trkpt lat="43.44238" lon="5.86223">
        <ele>337.08</ele>
        <time>2019-05-26T09:27:19Z</time>
      </trkpt>
      <trkpt lat="43.44154" lon="5.86254">
        <ele>337.56</ele>
        <time>2019-05-26T09:27:38Z</time>
      </trkpt>
      <trkpt lat="43.44073" lon="5.86286">
        <ele>339.48</ele>
        <time>2019-05-26T09:27:57Z</time>
      </trkpt>
      <trkpt lat="43.44051" lon="5.86293">
        <ele>339.48</ele>
        <time>2019-05-26T09:28:03Z</time>
      </trkpt>
      <trkpt lat="43.44047" lon="5.8629">
        <ele>339.48</ele>
        <time>2019-05-26T09:28:04Z</time>
      </trkpt>
      <trkpt lat="43.44044" lon="5.86285">
        <ele>339.48</ele>
        <time>2019-05-26T09:28:05Z</time>
      </trkpt>
      <trkpt lat="43.44042" lon="5.86281">
        <ele>340.44</ele>
        <time>2019-05-26T09:28:06Z</time>
      </trkpt>
      <trkpt lat="43.44041" lon="5.86275">
        <ele>340.92</ele>
        <time>2019-05-26T09:28:07Z</time>
      </trkpt>
      <trkpt lat="43.4404" lon="5.8627">
        <ele>340.92</ele>
        <time>2019-05-26T09:28:08Z</time>
      </trkpt>
      <trkpt lat="43.4404" lon="5.86265">
        <ele>341.41</ele>
        <time>2019-05-26T09:28:09Z</time>
      </trkpt>
      <trkpt lat="43.44039" lon="5.86261">
        <ele>341.41</ele>
        <time>2019-05-26T09:28:10Z</time>
      </trkpt>
      <trkpt lat="43.44032" lon="5.86213">
        <ele>344.77</ele>
        <time>2019-05-26T09:28:21Z</time>
      </trkpt>
      <trkpt lat="43.44027" lon="5.86168">
        <ele>346.21</ele>
        <time>2019-05-26T09:28:32Z</time>
      </trkpt>
      <trkpt lat="43.44024" lon="5.86165">
        <ele>346.69</ele>
        <time>2019-05-26T09:28:33Z</time>
      </trkpt>
      <trkpt lat="43.44022" lon="5.86164">
        <ele>346.69</ele>
        <time>2019-05-26T09:28:34Z</time>
      </trkpt>
      <trkpt lat="43.43992" lon="5.86147">
        <ele>347.65</ele>
        <time>2019-05-26T09:28:46Z</time>
      </trkpt>
      <trkpt lat="43.43967" lon="5.86083">
        <ele>350.06</ele>
        <time>2019-05-26T09:29:03Z</time>
      </trkpt>
      <trkpt lat="43.43966" lon="5.86076">
        <ele>350.54</ele>
        <time>2019-05-26T09:29:05Z</time>
      </trkpt>
      <trkpt lat="43.43967" lon="5.86073">
        <ele>350.54</ele>
        <time>2019-05-26T09:29:06Z</time>
      </trkpt>
      <trkpt lat="43.43968" lon="5.8607">
        <ele>350.54</ele>
        <time>2019-05-26T09:29:07Z</time>
      </trkpt>
      <trkpt lat="43.43974" lon="5.8606">
        <ele>351.02</ele>
        <time>2019-05-26T09:29:11Z</time>
      </trkpt>
      <trkpt lat="43.43974" lon="5.86057">
        <ele>351.02</ele>
        <time>2019-05-26T09:29:12Z</time>
      </trkpt>
      <trkpt lat="43.43974" lon="5.86054">
        <ele>351.02</ele>
        <time>2019-05-26T09:29:13Z</time>
      </trkpt>
      <trkpt lat="43.43974" lon="5.86052">
        <ele>351.02</ele>
        <time>2019-05-26T09:29:14Z</time>
      </trkpt>
      <trkpt lat="43.43975" lon="5.86032">
        <ele>351.5</ele>
        <time>2019-05-26T09:29:23Z</time>
      </trkpt>
      <trkpt lat="43.43971" lon="5.86026">
        <ele>351.5</ele>
        <time>2019-05-26T09:29:54Z</time>
      </trkpt>
      <trkpt lat="43.43973" lon="5.86025">
        <ele>351.5</ele>
        <time>2019-05-26T09:30:35Z</time>
      </trkpt>
      <trkpt lat="43.43973" lon="5.86025">
        <ele>351.5</ele>
        <time>2019-05-26T09:31:10Z</time>
      </trkpt>
      <trkpt lat="43.43972" lon="5.86023">
        <ele>351.5</ele>
        <time>2019-05-26T09:31:51Z</time>
      </trkpt>
      <trkpt lat="43.4397" lon="5.86026">
        <ele>351.5</ele>
        <time>2019-05-26T09:32:26Z</time>
      </trkpt>
      <trkpt lat="43.4397" lon="5.86026">
        <ele>351.5</ele>
        <time>2019-05-26T09:32:57Z</time>
      </trkpt>
      <trkpt lat="43.4397" lon="5.86026">
        <ele>351.5</ele>
        <time>2019-05-26T09:33:26Z</time>
      </trkpt>
    </trkseg>
  </trk>
</gpx>